Observation data for Doole 3WNW on 08/11/2019      Previous  Date  Next       Current Mesonet Observations  Soil Data  Daily Summary Page  Observations in Plain Language
KDO2 110500Z 16008KT 28/17 A2995 RMK A01 T02760167  RH  051%=      5-min Rain = 0
KDO2 110501Z 16008KT 28/17 A2995 RMK A01 T02760167  RH  052%=      5-min Rain = 0
KDO2 110502Z 16008KT 28/17 A2995 RMK A01 T02760167  RH  052%=      5-min Rain = 0
KDO2 110503Z 16009KT 28/17 A2995 RMK A01 T02760167  RH  052%=      5-min Rain = 0
KDO2 110504Z 16009KT 28/17 A2995 RMK A01 T02760167  RH  052%=      5-min Rain = 0
KDO2 110505Z 15009KT 28/17 A2995 RMK A01 T02760167  RH  052%=      5-min Rain = 0
KDO2 110506Z 15009KT 28/17 A2995 RMK A01 T02760167  RH  052%=      5-min Rain = 0
KDO2 110507Z 15009KT 28/17 A2995 RMK A01 T02760167  RH  052%=      5-min Rain = 0
KDO2 110508Z 15009KT 28/17 A2995 RMK A01 T02760167  RH  052%=      5-min Rain = 0
KDO2 110509Z 16009KT 28/17 A2995 RMK A01 T02760167  RH  051%=      5-min Rain = 0
KDO2 110510Z 16008KT 28/17 A2995 RMK A01 T02770168  RH  051%=      5-min Rain = 0
KDO2 110511Z 16008KT 28/17 A2995 RMK A01 T02770168  RH  051%=      5-min Rain = 0
KDO2 110512Z 16008KT 28/17 A2995 RMK A01 T02770168  RH  051%=      5-min Rain = 0
KDO2 110513Z 16007KT 28/17 A2995 RMK A01 T02770168  RH  051%=      5-min Rain = 0
KDO2 110514Z 15007KT 28/17 A2995 RMK A01 T02770168  RH  051%=      5-min Rain = 0
KDO2 110515Z 16007KT 28/17 A2995 RMK A01 T02780168  RH  051%=      5-min Rain = 0
KDO2 110516Z 16007KT 28/17 A2995 RMK A01 T02780168  RH  051%=      5-min Rain = 0
KDO2 110517Z 16007KT 28/17 A2995 RMK A01 T02780168  RH  051%=      5-min Rain = 0
KDO2 110518Z 16007KT 28/17 A2995 RMK A01 T02780168  RH  051%=      5-min Rain = 0
KDO2 110519Z 16007KT 28/17 A2995 RMK A01 T02780168  RH  051%=      5-min Rain = 0
KDO2 110520Z 16007KT 28/17 A2995 RMK A01 T02780169  RH  051%=      5-min Rain = 0
KDO2 110521Z 16007KT 28/17 A2995 RMK A01 T02780169  RH  052%=      5-min Rain = 0
KDO2 110522Z 16007KT 28/17 A2995 RMK A01 T02770169  RH  052%=      5-min Rain = 0
KDO2 110523Z 16007KT 28/17 A2995 RMK A01 T02770169  RH  052%=      5-min Rain = 0
KDO2 110524Z 16007KT 28/17 A2995 RMK A01 T02770169  RH  052%=      5-min Rain = 0
KDO2 110525Z 16007KT 28/17 A2995 RMK A01 T02770169  RH  052%=      5-min Rain = 0
KDO2 110526Z 16007KT 28/17 A2995 RMK A01 T02770170  RH  052%=      5-min Rain = 0
KDO2 110527Z 16007KT 28/17 A2995 RMK A01 T02770169  RH  052%=      5-min Rain = 0
KDO2 110528Z 16007KT 28/17 A2995 RMK A01 T02760169  RH  052%=      5-min Rain = 0
KDO2 110529Z 16007KT 28/17 A2995 RMK A01 T02770170  RH  052%=      5-min Rain = 0
KDO2 110530Z 16007KT 28/17 A2995 RMK A01 T02770170  RH  052%=      5-min Rain = 0
KDO2 110531Z 16007KT 28/17 A2995 RMK A01 T02770171  RH  052%=      5-min Rain = 0
KDO2 110532Z 16006KT 28/17 A2995 RMK A01 T02760170  RH  052%=      5-min Rain = 0
KDO2 110533Z 16006KT 28/17 A2995 RMK A01 T02760171  RH  052%=      5-min Rain = 0
KDO2 110534Z 16006KT 28/17 A2995 RMK A01 T02760171  RH  053%=      5-min Rain = 0
KDO2 110535Z 16006KT 28/17 A2995 RMK A01 T02760171  RH  053%=      5-min Rain = 0
KDO2 110536Z 16006KT 28/17 A2995 RMK A01 T02760171  RH  053%=      5-min Rain = 0
KDO2 110537Z 16006KT 28/17 A2995 RMK A01 T02760171  RH  053%=      5-min Rain = 0
KDO2 110538Z 16006KT 28/17 A2995 RMK A01 T02750171  RH  053%=      5-min Rain = 0
KDO2 110539Z 16007KT 28/17 A2995 RMK A01 T02750171  RH  053%=      5-min Rain = 0
KDO2 110540Z 16007KT 28/17 A2995 RMK A01 T02750171  RH  053%=      5-min Rain = 0
KDO2 110541Z 16006KT 28/17 A2995 RMK A01 T02750171  RH  053%=      5-min Rain = 0
KDO2 110542Z 16007KT 28/17 A2995 RMK A01 T02760171  RH  053%=      5-min Rain = 0
KDO2 110543Z 16007KT 28/17 A2995 RMK A01 T02760171  RH  053%=      5-min Rain = 0
KDO2 110544Z 16007KT 28/17 A2995 RMK A01 T02760171  RH  053%=      5-min Rain = 0
KDO2 110545Z 16007KT 28/17 A2995 RMK A01 T02760171  RH  053%=      5-min Rain = 0
KDO2 110546Z 16007KT 28/17 A2995 RMK A01 T02760171  RH  053%=      5-min Rain = 0
KDO2 110547Z 16008KT 28/17 A2995 RMK A01 T02760171  RH  053%=      5-min Rain = 0
KDO2 110548Z 16008KT 28/17 A2995 RMK A01 T02760171  RH  053%=      5-min Rain = 0
KDO2 110549Z 16008KT 28/17 A2995 RMK A01 T02760171  RH  053%=      5-min Rain = 0
KDO2 110550Z 16008KT 28/17 A2995 RMK A01 T02760171  RH  053%=      5-min Rain = 0
KDO2 110551Z 16008KT 28/17 A2995 RMK A01 T02760171  RH  053%=      5-min Rain = 0
KDO2 110552Z 15009KT 28/17 A2995 RMK A01 T02760171  RH  053%=      5-min Rain = 0
KDO2 110553Z 16008KT 28/17 A2995 RMK A01 T02760172  RH  053%=      5-min Rain = 0
KDO2 110554Z 16009KT 28/17 A2995 RMK A01 T02760172  RH  053%=      5-min Rain = 0
KDO2 110555Z 16008KT 28/17 A2995 RMK A01 T02770172  RH  053%=      5-min Rain = 0
KDO2 110556Z 16009KT 28/17 A2995 RMK A01 T02770172  RH  053%=      5-min Rain = 0
KDO2 110557Z 16009KT 28/17 A2995 RMK A01 T02770172  RH  053%=      5-min Rain = 0
KDO2 110558Z 16008KT 28/17 A2995 RMK A01 T02770172  RH  053%=      5-min Rain = 0
KDO2 110559Z 16009KT 28/17 A2995 RMK A01 T02770172  RH  053%=      5-min Rain = 0
KDO2 110600Z 16008KT 28/17 A2995 RMK A01 T02780172  RH  053%=      5-min Rain = 0
KDO2 110601Z 16008KT 28/17 A2995 RMK A01 T02780172  RH  052%=      5-min Rain = 0
KDO2 110602Z 16009KT 28/17 A2995 RMK A01 T02790172  RH  052%=      5-min Rain = 0
KDO2 110603Z 16008KT 28/17 A2995 RMK A01 T02790172  RH  052%=      5-min Rain = 0
KDO2 110604Z 16008KT 28/17 A2995 RMK A01 T02800173  RH  052%=      5-min Rain = 0
KDO2 110605Z 16008KT 28/17 A2995 RMK A01 T02800173  RH  052%=      5-min Rain = 0
KDO2 110606Z 16008KT 28/17 A2995 RMK A01 T02800173  RH  052%=      5-min Rain = 0
KDO2 110607Z 15008KT 28/17 A2995 RMK A01 T02800172  RH  052%=      5-min Rain = 0
KDO2 110608Z 16008KT 28/17 A2995 RMK A01 T02810173  RH  052%=      5-min Rain = 0
KDO2 110609Z 16009KT 28/17 A2995 RMK A01 T02810173  RH  052%=      5-min Rain = 0
KDO2 110610Z 16009KT 28/17 A2995 RMK A01 T02810173  RH  052%=      5-min Rain = 0
KDO2 110611Z 16009KT 28/17 A2995 RMK A01 T02820173  RH  052%=      5-min Rain = 0
KDO2 110612Z 16009KT 28/17 A2995 RMK A01 T02830173  RH  051%=      5-min Rain = 0
KDO2 110613Z 16009KT 28/17 A2995 RMK A01 T02840174  RH  051%=      5-min Rain = 0
KDO2 110614Z 16011KT 28/17 A2995 RMK A01 T02840174  RH  051%=      5-min Rain = 0
KDO2 110615Z 16011KT 29/17 A2995 RMK A01 T02850174  RH  051%=      5-min Rain = 0
KDO2 110616Z 16010KT 29/17 A2995 RMK A01 T02860174  RH  051%=      5-min Rain = 0
KDO2 110617Z 16011KT 29/17 A2995 RMK A01 T02860174  RH  051%=      5-min Rain = 0
KDO2 110618Z 16010KT 29/17 A2995 RMK A01 T02870174  RH  051%=      5-min Rain = 0
KDO2 110619Z 16010KT 29/17 A2995 RMK A01 T02870174  RH  050%=      5-min Rain = 0
KDO2 110620Z 16010KT 29/17 A2995 RMK A01 T02870174  RH  051%=      5-min Rain = 0
KDO2 110621Z 16010KT 29/18 A2995 RMK A01 T02860175  RH  051%=      5-min Rain = 0
KDO2 110622Z 16011KT 29/18 A2995 RMK A01 T02860175  RH  051%=      5-min Rain = 0
KDO2 110623Z 16012KT 29/18 A2995 RMK A01 T02860175  RH  051%=      5-min Rain = 0
KDO2 110624Z 16010KT 29/18 A2995 RMK A01 T02870175  RH  051%=      5-min Rain = 0
KDO2 110625Z 16011KT 29/18 A2995 RMK A01 T02870176  RH  051%=      5-min Rain = 0
KDO2 110626Z 16010KT 29/18 A2995 RMK A01 T02870176  RH  051%=      5-min Rain = 0
KDO2 110627Z 16010KT 29/18 A2995 RMK A01 T02870176  RH  051%=      5-min Rain = 0
KDO2 110628Z 16009KT 29/18 A2995 RMK A01 T02880176  RH  051%=      5-min Rain = 0
KDO2 110629Z 16012KT 29/18 A2995 RMK A01 T02870177  RH  051%=      5-min Rain = 0
KDO2 110630Z 16010KT 29/18 A2995 RMK A01 T02870176  RH  051%=      5-min Rain = 0
KDO2 110631Z 16011KT 29/18 A2995 RMK A01 T02880176  RH  051%=      5-min Rain = 0
KDO2 110632Z 16013KT 29/18 A2995 RMK A01 T02880177  RH  051%=      5-min Rain = 0
KDO2 110633Z 16013KT 29/18 A2995 RMK A01 T02880177  RH  051%=      5-min Rain = 0
KDO2 110634Z 16012KT 29/18 A2995 RMK A01 T02880177  RH  051%=      5-min Rain = 0
KDO2 110635Z 16010KT 29/18 A2995 RMK A01 T02880177  RH  051%=      5-min Rain = 0
KDO2 110636Z 16012KT 29/18 A2995 RMK A01 T02880177  RH  051%=      5-min Rain = 0
KDO2 110637Z 16012KT 29/18 A2995 RMK A01 T02880177  RH  051%=      5-min Rain = 0
KDO2 110638Z 16012KT 29/18 A2995 RMK A01 T02880177  RH  051%=      5-min Rain = 0
KDO2 110639Z 16012KT 29/18 A2995 RMK A01 T02880177  RH  051%=      5-min Rain = 0
KDO2 110640Z 16012KT 29/18 A2995 RMK A01 T02880177  RH  051%=      5-min Rain = 0
KDO2 110641Z 16012KT 29/18 A2995 RMK A01 T02870177  RH  051%=      5-min Rain = 0
KDO2 110642Z 17012KT 29/18 A2995 RMK A01 T02870177  RH  051%=      5-min Rain = 0
KDO2 110643Z 16013KT 29/18 A2995 RMK A01 T02870177  RH  051%=      5-min Rain = 0
KDO2 110644Z 16013KT 29/18 A2995 RMK A01 T02870177  RH  051%=      5-min Rain = 0
KDO2 110645Z 16013KT 29/18 A2995 RMK A01 T02870177  RH  051%=      5-min Rain = 0
KDO2 110646Z 16012KT 29/18 A2995 RMK A01 T02870177  RH  051%=      5-min Rain = 0
KDO2 110647Z 16012KT 29/18 A2995 RMK A01 T02870177  RH  051%=      5-min Rain = 0
KDO2 110648Z 16012KT 29/18 A2995 RMK A01 T02880177  RH  051%=      5-min Rain = 0
KDO2 110649Z 16012KT 29/18 A2995 RMK A01 T02880178  RH  051%=      5-min Rain = 0
KDO2 110650Z 17012KT 29/18 A2995 RMK A01 T02880178  RH  051%=      5-min Rain = 0
KDO2 110651Z 16011KT 29/18 A2995 RMK A01 T02870178  RH  052%=      5-min Rain = 0
KDO2 110652Z 16012KT 29/18 A2995 RMK A01 T02870178  RH  052%=      5-min Rain = 0
KDO2 110653Z 16010KT 29/18 A2995 RMK A01 T02860178  RH  052%=      5-min Rain = 0
KDO2 110654Z 17010KT 29/18 A2995 RMK A01 T02860178  RH  052%=      5-min Rain = 0
KDO2 110655Z 16011KT 29/18 A2995 RMK A01 T02850178  RH  052%=      5-min Rain = 0
KDO2 110656Z 16012KT 28/18 A2995 RMK A01 T02840178  RH  052%=      5-min Rain = 0
KDO2 110657Z 16011KT 28/18 A2995 RMK A01 T02840178  RH  052%=      5-min Rain = 0
KDO2 110658Z 16010KT 29/18 A2995 RMK A01 T02850178  RH  053%=      5-min Rain = 0
KDO2 110659Z 17012KT 28/18 A2995 RMK A01 T02840178  RH  053%=      5-min Rain = 0
KDO2 110700Z 16010KT 28/18 A2995 RMK A01 T02840179  RH  053%=      5-min Rain = 0
KDO2 110701Z 16011KT 28/18 A2995 RMK A01 T02840179  RH  053%=      5-min Rain = 0
KDO2 110702Z 17009KT 28/18 A2995 RMK A01 T02840179  RH  053%=      5-min Rain = 0
KDO2 110703Z 17010KT 28/18 A2995 RMK A01 T02830178  RH  053%=      5-min Rain = 0
KDO2 110704Z 17009KT 28/18 A2995 RMK A01 T02830179  RH  053%=      5-min Rain = 0
KDO2 110705Z 16010KT 28/18 A2995 RMK A01 T02820179  RH  053%=      5-min Rain = 0
KDO2 110706Z 16009KT 28/18 A2995 RMK A01 T02820179  RH  053%=      5-min Rain = 0
KDO2 110707Z 16009KT 28/18 A2995 RMK A01 T02820179  RH  054%=      5-min Rain = 0
KDO2 110708Z 16010KT 28/18 A2995 RMK A01 T02820179  RH  054%=      5-min Rain = 0
KDO2 110709Z 16010KT 28/18 A2995 RMK A01 T02820179  RH  054%=      5-min Rain = 0
KDO2 110710Z 16011KT 28/18 A2995 RMK A01 T02820179  RH  053%=      5-min Rain = 0
KDO2 110711Z 16011KT 28/18 A2995 RMK A01 T02830179  RH  054%=      5-min Rain = 0
KDO2 110712Z 16011KT 28/18 A2995 RMK A01 T02820180  RH  054%=      5-min Rain = 0
KDO2 110713Z 16010KT 28/18 A2995 RMK A01 T02830180  RH  054%=      5-min Rain = 0
KDO2 110714Z 16010KT 28/18 A2995 RMK A01 T02820180  RH  054%=      5-min Rain = 0
KDO2 110715Z 17010KT 28/18 A2995 RMK A01 T02820180  RH  054%=      5-min Rain = 0
KDO2 110716Z 16009KT 28/18 A2995 RMK A01 T02820180  RH  054%=      5-min Rain = 0
KDO2 110717Z 16009KT 28/18 A2995 RMK A01 T02810180  RH  054%=      5-min Rain = 0
KDO2 110718Z 17009KT 28/18 A2995 RMK A01 T02810180  RH  054%=      5-min Rain = 0
KDO2 110719Z 16007KT 28/18 A2995 RMK A01 T02800180  RH  054%=      5-min Rain = 0
KDO2 110720Z 16009KT 28/18 A2995 RMK A01 T02800180  RH  055%=      5-min Rain = 0
KDO2 110721Z 16009KT 28/18 A2995 RMK A01 T02800180  RH  055%=      5-min Rain = 0
KDO2 110722Z 16010KT 28/18 A2995 RMK A01 T02800181  RH  055%=      5-min Rain = 0
KDO2 110723Z 17009KT 28/18 A2995 RMK A01 T02800180  RH  055%=      5-min Rain = 0
KDO2 110724Z 17010KT 28/18 A2995 RMK A01 T02800180  RH  055%=      5-min Rain = 0
KDO2 110725Z 17010KT 28/18 A2995 RMK A01 T02800180  RH  055%=      5-min Rain = 0
KDO2 110726Z 16009KT 28/18 A2995 RMK A01 T02800181  RH  055%=      5-min Rain = 0
KDO2 110727Z 16010KT 28/18 A2995 RMK A01 T02800181  RH  055%=      5-min Rain = 0
KDO2 110728Z 16009KT 28/18 A2995 RMK A01 T02800181  RH  055%=      5-min Rain = 0
KDO2 110729Z 16009KT 28/18 A2995 RMK A01 T02800181  RH  055%=      5-min Rain = 0
KDO2 110730Z 16009KT 28/18 A2996 RMK A01 T02790181  RH  055%=      5-min Rain = 0
KDO2 110731Z 16010KT 28/18 A2996 RMK A01 T02790181  RH  055%=      5-min Rain = 0
KDO2 110732Z 16010KT 28/18 A2996 RMK A01 T02790181  RH  055%=      5-min Rain = 0
KDO2 110733Z 16011KT 28/18 A2996 RMK A01 T02790182  RH  055%=      5-min Rain = 0
KDO2 110734Z 16009KT 28/18 A2996 RMK A01 T02790182  RH  055%=      5-min Rain = 0
KDO2 110735Z 16010KT 28/18 A2996 RMK A01 T02790182  RH  055%=      5-min Rain = 0
KDO2 110736Z 16010KT 28/18 A2996 RMK A01 T02790182  RH  056%=      5-min Rain = 0
KDO2 110737Z 16009KT 28/18 A2996 RMK A01 T02800183  RH  056%=      5-min Rain = 0
KDO2 110738Z 16011KT 28/18 A2996 RMK A01 T02790182  RH  056%=      5-min Rain = 0
KDO2 110739Z 16010KT 28/18 A2996 RMK A01 T02790182  RH  056%=      5-min Rain = 0
KDO2 110740Z 16009KT 28/18 A2996 RMK A01 T02790183  RH  056%=      5-min Rain = 0
KDO2 110741Z 16009KT 28/18 A2996 RMK A01 T02790183  RH  056%=      5-min Rain = 0
KDO2 110742Z 16009KT 28/18 A2996 RMK A01 T02780183  RH  056%=      5-min Rain = 0
KDO2 110743Z 16010KT 28/18 A2996 RMK A01 T02780183  RH  056%=      5-min Rain = 0
KDO2 110744Z 16009KT 28/18 A2996 RMK A01 T02770183  RH  056%=      5-min Rain = 0
KDO2 110745Z 17009KT 28/18 A2996 RMK A01 T02780183  RH  056%=      5-min Rain = 0
KDO2 110746Z 17010KT 28/18 A2996 RMK A01 T02780184  RH  057%=      5-min Rain = 0
KDO2 110747Z 16011KT 28/18 A2996 RMK A01 T02780184  RH  057%=      5-min Rain = 0
KDO2 110748Z 16009KT 28/18 A2996 RMK A01 T02780184  RH  057%=      5-min Rain = 0
KDO2 110749Z 17011KT 28/18 A2996 RMK A01 T02780184  RH  057%=      5-min Rain = 0
KDO2 110750Z 17009KT 28/18 A2996 RMK A01 T02770184  RH  057%=      5-min Rain = 0
KDO2 110751Z 17010KT 28/18 A2996 RMK A01 T02780184  RH  057%=      5-min Rain = 0
KDO2 110752Z 16009KT 28/19 A2996 RMK A01 T02770185  RH  057%=      5-min Rain = 0
KDO2 110753Z 16009KT 28/19 A2996 RMK A01 T02770185  RH  057%=      5-min Rain = 0
KDO2 110754Z 17008KT 28/19 A2996 RMK A01 T02770185  RH  057%=      5-min Rain = 0
KDO2 110755Z 16009KT 28/19 A2996 RMK A01 T02760185  RH  057%=      5-min Rain = 0
KDO2 110756Z 17009KT 28/19 A2996 RMK A01 T02770185  RH  057%=      5-min Rain = 0
KDO2 110757Z 17008KT 28/19 A2996 RMK A01 T02760185  RH  057%=      5-min Rain = 0
KDO2 110758Z 16009KT 28/19 A2996 RMK A01 T02760185  RH  058%=      5-min Rain = 0
KDO2 110759Z 17008KT 28/19 A2996 RMK A01 T02760185  RH  058%=      5-min Rain = 0
KDO2 110800Z 16009KT 28/19 A2996 RMK A01 T02760185  RH  058%=      5-min Rain = 0
KDO2 110801Z 17008KT 28/19 A2996 RMK A01 T02760185  RH  058%=      5-min Rain = 0
KDO2 110802Z 16008KT 28/19 A2996 RMK A01 T02760185  RH  058%=      5-min Rain = 0
KDO2 110803Z 16008KT 28/19 A2996 RMK A01 T02760186  RH  058%=      5-min Rain = 0
KDO2 110804Z 16008KT 28/19 A2996 RMK A01 T02750186  RH  058%=      5-min Rain = 0
KDO2 110805Z 16008KT 28/19 A2996 RMK A01 T02750186  RH  058%=      5-min Rain = 0
KDO2 110806Z 16008KT 28/19 A2996 RMK A01 T02750186  RH  058%=      5-min Rain = 0
KDO2 110807Z 16008KT 28/19 A2996 RMK A01 T02750186  RH  059%=      5-min Rain = 0
KDO2 110808Z 16008KT 27/19 A2996 RMK A01 T02740186  RH  059%=      5-min Rain = 0
KDO2 110809Z 16007KT 27/19 A2996 RMK A01 T02740186  RH  059%=      5-min Rain = 0
KDO2 110810Z 16007KT 27/19 A2996 RMK A01 T02740186  RH  059%=      5-min Rain = 0
KDO2 110811Z 16007KT 27/19 A2996 RMK A01 T02730186  RH  059%=      5-min Rain = 0
KDO2 110812Z 16008KT 27/19 A2996 RMK A01 T02730186  RH  059%=      5-min Rain = 0
KDO2 110813Z 16007KT 27/19 A2996 RMK A01 T02720186  RH  059%=      5-min Rain = 0
KDO2 110814Z 17007KT 27/19 A2996 RMK A01 T02720186  RH  059%=      5-min Rain = 0
KDO2 110815Z 16007KT 27/19 A2996 RMK A01 T02710186  RH  060%=      5-min Rain = 0
KDO2 110816Z 16007KT 27/19 A2996 RMK A01 T02710186  RH  060%=      5-min Rain = 0
KDO2 110817Z 16008KT 27/19 A2996 RMK A01 T02710186  RH  060%=      5-min Rain = 0
KDO2 110818Z 16007KT 27/19 A2996 RMK A01 T02710187  RH  060%=      5-min Rain = 0
KDO2 110819Z 17008KT 27/19 A2996 RMK A01 T02710187  RH  060%=      5-min Rain = 0
KDO2 110820Z 17007KT 27/19 A2996 RMK A01 T02700187  RH  060%=      5-min Rain = 0
KDO2 110821Z 16007KT 27/19 A2996 RMK A01 T02700186  RH  060%=      5-min Rain = 0
KDO2 110822Z 16007KT 27/19 A2996 RMK A01 T02700186  RH  060%=      5-min Rain = 0
KDO2 110823Z 17007KT 27/19 A2996 RMK A01 T02700186  RH  060%=      5-min Rain = 0
KDO2 110824Z 16007KT 27/19 A2996 RMK A01 T02700187  RH  060%=      5-min Rain = 0
KDO2 110825Z 16006KT 27/19 A2996 RMK A01 T02700187  RH  060%=      5-min Rain = 0
KDO2 110826Z 16008KT 27/19 A2996 RMK A01 T02690187  RH  061%=      5-min Rain = 0
KDO2 110827Z 16008KT 27/19 A2996 RMK A01 T02690187  RH  061%=      5-min Rain = 0
KDO2 110828Z 16007KT 27/19 A2996 RMK A01 T02690187  RH  061%=      5-min Rain = 0
KDO2 110829Z 16007KT 27/19 A2996 RMK A01 T02690187  RH  061%=      5-min Rain = 0
KDO2 110830Z 16007KT 27/19 A2996 RMK A01 T02690187  RH  061%=      5-min Rain = 0
KDO2 110831Z 16007KT 27/19 A2996 RMK A01 T02680187  RH  061%=      5-min Rain = 0
KDO2 110832Z 15006KT 27/19 A2996 RMK A01 T02680187  RH  061%=      5-min Rain = 0
KDO2 110833Z 15006KT 27/19 A2995 RMK A01 T02670187  RH  061%=      5-min Rain = 0
KDO2 110834Z 15006KT 27/19 A2995 RMK A01 T02670187  RH  062%=      5-min Rain = 0
KDO2 110835Z 15007KT 27/19 A2995 RMK A01 T02660187  RH  062%=      5-min Rain = 0
KDO2 110836Z 15007KT 27/19 A2995 RMK A01 T02660187  RH  062%=      5-min Rain = 0
KDO2 110837Z 15007KT 27/19 A2995 RMK A01 T02660187  RH  062%=      5-min Rain = 0
KDO2 110838Z 15007KT 27/19 A2995 RMK A01 T02650187  RH  062%=      5-min Rain = 0
KDO2 110839Z 15007KT 27/19 A2995 RMK A01 T02650187  RH  062%=      5-min Rain = 0
KDO2 110840Z 15007KT 27/19 A2995 RMK A01 T02650188  RH  063%=      5-min Rain = 0
KDO2 110841Z 15007KT 27/19 A2995 RMK A01 T02650188  RH  063%=      5-min Rain = 0
KDO2 110842Z 16007KT 26/19 A2995 RMK A01 T02640188  RH  063%=      5-min Rain = 0
KDO2 110843Z 15007KT 26/19 A2995 RMK A01 T02640188  RH  063%=      5-min Rain = 0
KDO2 110844Z 15007KT 26/19 A2995 RMK A01 T02640188  RH  063%=      5-min Rain = 0
KDO2 110845Z 15007KT 26/19 A2995 RMK A01 T02630188  RH  063%=      5-min Rain = 0
KDO2 110846Z 16007KT 26/19 A2995 RMK A01 T02630188  RH  063%=      5-min Rain = 0
KDO2 110847Z 15007KT 26/19 A2995 RMK A01 T02630188  RH  063%=      5-min Rain = 0
KDO2 110848Z 16007KT 26/19 A2995 RMK A01 T02630188  RH  063%=      5-min Rain = 0
KDO2 110849Z 16007KT 26/19 A2995 RMK A01 T02630188  RH  063%=      5-min Rain = 0
KDO2 110850Z 16007KT 26/19 A2995 RMK A01 T02630188  RH  063%=      5-min Rain = 0
KDO2 110851Z 16007KT 26/19 A2995 RMK A01 T02630188  RH  064%=      5-min Rain = 0
KDO2 110852Z 15007KT 26/19 A2995 RMK A01 T02630188  RH  064%=      5-min Rain = 0
KDO2 110853Z 16006KT 26/19 A2995 RMK A01 T02630189  RH  064%=      5-min Rain = 0
KDO2 110854Z 16007KT 26/19 A2995 RMK A01 T02620189  RH  064%=      5-min Rain = 0
KDO2 110855Z 15007KT 26/19 A2995 RMK A01 T02620189  RH  064%=      5-min Rain = 0
KDO2 110856Z 15007KT 26/19 A2995 RMK A01 T02620189  RH  064%=      5-min Rain = 0
KDO2 110857Z 15007KT 26/19 A2995 RMK A01 T02620189  RH  064%=      5-min Rain = 0
KDO2 110858Z 16007KT 26/19 A2995 RMK A01 T02620189  RH  064%=      5-min Rain = 0
KDO2 110859Z 15008KT 26/19 A2995 RMK A01 T02620189  RH  064%=      5-min Rain = 0
KDO2 110900Z 15007KT 26/19 A2995 RMK A01 T02620189  RH  064%=      5-min Rain = 0
KDO2 110901Z 15008KT 26/19 A2995 RMK A01 T02620189  RH  064%=      5-min Rain = 0
KDO2 110902Z 16007KT 26/19 A2995 RMK A01 T02620189  RH  064%=      5-min Rain = 0
KDO2 110903Z 15007KT 26/19 A2995 RMK A01 T02630189  RH  064%=      5-min Rain = 0
KDO2 110904Z 15007KT 26/19 A2995 RMK A01 T02630189  RH  064%=      5-min Rain = 0
KDO2 110905Z 15008KT 26/19 A2996 RMK A01 T02630190  RH  064%=      5-min Rain = 0
KDO2 110906Z 16008KT 26/19 A2996 RMK A01 T02640190  RH  064%=      5-min Rain = 0
KDO2 110907Z 16007KT 26/19 A2995 RMK A01 T02640190  RH  064%=      5-min Rain = 0
KDO2 110908Z 16008KT 26/19 A2995 RMK A01 T02640190  RH  064%=      5-min Rain = 0
KDO2 110909Z 15008KT 26/19 A2995 RMK A01 T02640190  RH  064%=      5-min Rain = 0
KDO2 110910Z 16007KT 26/19 A2995 RMK A01 T02640190  RH  064%=      5-min Rain = 0
KDO2 110911Z 15008KT 26/19 A2995 RMK A01 T02640190  RH  064%=      5-min Rain = 0
KDO2 110912Z 16008KT 26/19 A2996 RMK A01 T02640190  RH  064%=      5-min Rain = 0
KDO2 110913Z 16008KT 26/19 A2996 RMK A01 T02640190  RH  064%=      5-min Rain = 0
KDO2 110914Z 16009KT 26/19 A2996 RMK A01 T02640190  RH  064%=      5-min Rain = 0
KDO2 110915Z 16009KT 27/19 A2996 RMK A01 T02650191  RH  064%=      5-min Rain = 0
KDO2 110916Z 16008KT 26/19 A2996 RMK A01 T02640190  RH  064%=      5-min Rain = 0
KDO2 110917Z 16008KT 27/19 A2996 RMK A01 T02650191  RH  064%=      5-min Rain = 0
KDO2 110918Z 16007KT 27/19 A2996 RMK A01 T02650191  RH  064%=      5-min Rain = 0
KDO2 110919Z 16008KT 27/19 A2996 RMK A01 T02650191  RH  064%=      5-min Rain = 0
KDO2 110920Z 16008KT 27/19 A2996 RMK A01 T02650191  RH  064%=      5-min Rain = 0
KDO2 110921Z 16008KT 27/19 A2996 RMK A01 T02650191  RH  064%=      5-min Rain = 0
KDO2 110922Z 16007KT 27/19 A2996 RMK A01 T02650191  RH  064%=      5-min Rain = 0
KDO2 110923Z 16008KT 26/19 A2996 RMK A01 T02640191  RH  064%=      5-min Rain = 0
KDO2 110924Z 16008KT 26/19 A2996 RMK A01 T02640191  RH  064%=      5-min Rain = 0
KDO2 110925Z 16007KT 26/19 A2996 RMK A01 T02640191  RH  064%=      5-min Rain = 0
KDO2 110926Z 16008KT 26/19 A2996 RMK A01 T02640191  RH  064%=      5-min Rain = 0
KDO2 110927Z 16009KT 26/19 A2996 RMK A01 T02640191  RH  064%=      5-min Rain = 0
KDO2 110928Z 16008KT 26/19 A2996 RMK A01 T02640191  RH  064%=      5-min Rain = 0
KDO2 110929Z 16008KT 26/19 A2996 RMK A01 T02640191  RH  064%=      5-min Rain = 0
KDO2 110930Z 16009KT 26/19 A2996 RMK A01 T02640191  RH  064%=      5-min Rain = 0
KDO2 110931Z 16008KT 26/19 A2996 RMK A01 T02640191  RH  064%=      5-min Rain = 0
KDO2 110932Z 16009KT 26/19 A2996 RMK A01 T02640191  RH  064%=      5-min Rain = 0
KDO2 110933Z 16009KT 27/19 A2996 RMK A01 T02650191  RH  064%=      5-min Rain = 0
KDO2 110934Z 17009KT 27/19 A2996 RMK A01 T02650191  RH  064%=      5-min Rain = 0
KDO2 110935Z 16008KT 27/19 A2996 RMK A01 T02650191  RH  064%=      5-min Rain = 0
KDO2 110936Z 17008KT 27/19 A2996 RMK A01 T02650191  RH  064%=      5-min Rain = 0
KDO2 110937Z 17009KT 26/19 A2996 RMK A01 T02640191  RH  064%=      5-min Rain = 0
KDO2 110938Z 17008KT 26/19 A2996 RMK A01 T02640192  RH  064%=      5-min Rain = 0
KDO2 110939Z 16009KT 26/19 A2996 RMK A01 T02640191  RH  064%=      5-min Rain = 0
KDO2 110940Z 17009KT 26/19 A2996 RMK A01 T02640191  RH  064%=      5-min Rain = 0
KDO2 110941Z 17010KT 26/19 A2996 RMK A01 T02640191  RH  064%=      5-min Rain = 0
KDO2 110942Z 17008KT 26/19 A2996 RMK A01 T02640191  RH  064%=      5-min Rain = 0
KDO2 110943Z 17009KT 26/19 A2996 RMK A01 T02640191  RH  064%=      5-min Rain = 0
KDO2 110944Z 17009KT 26/19 A2996 RMK A01 T02640191  RH  064%=      5-min Rain = 0
KDO2 110945Z 17010KT 26/19 A2996 RMK A01 T02640191  RH  064%=      5-min Rain = 0
KDO2 110946Z 17009KT 26/19 A2996 RMK A01 T02640191  RH  064%=      5-min Rain = 0
KDO2 110947Z 17009KT 26/19 A2996 RMK A01 T02640191  RH  064%=      5-min Rain = 0
KDO2 110948Z 17008KT 26/19 A2996 RMK A01 T02640191  RH  064%=      5-min Rain = 0
KDO2 110949Z 17008KT 26/19 A2996 RMK A01 T02640191  RH  064%=      5-min Rain = 0
KDO2 110950Z 17009KT 26/19 A2996 RMK A01 T02640191  RH  064%=      5-min Rain = 0
KDO2 110951Z 17008KT 26/19 A2996 RMK A01 T02640191  RH  064%=      5-min Rain = 0
KDO2 110952Z 17008KT 26/19 A2996 RMK A01 T02630191  RH  064%=      5-min Rain = 0
KDO2 110953Z 17009KT 26/19 A2996 RMK A01 T02640191  RH  064%=      5-min Rain = 0
KDO2 110954Z 17008KT 26/19 A2996 RMK A01 T02630191  RH  064%=      5-min Rain = 0
KDO2 110955Z 17008KT 26/19 A2996 RMK A01 T02630191  RH  064%=      5-min Rain = 0
KDO2 110956Z 17007KT 26/19 A2996 RMK A01 T02630191  RH  064%=      5-min Rain = 0
KDO2 110957Z 17009KT 26/19 A2996 RMK A01 T02630191  RH  064%=      5-min Rain = 0
KDO2 110958Z 17009KT 26/19 A2996 RMK A01 T02630191  RH  064%=      5-min Rain = 0
KDO2 110959Z 16008KT 26/19 A2996 RMK A01 T02630191  RH  064%=      5-min Rain = 0
KDO2 111000Z 17009KT 26/19 A2996 RMK A01 T02630190  RH  064%=      5-min Rain = 0
KDO2 111001Z 17009KT 26/19 A2996 RMK A01 T02630190  RH  064%=      5-min Rain = 0
KDO2 111002Z 17007KT 26/19 A2996 RMK A01 T02630190  RH  064%=      5-min Rain = 0
KDO2 111003Z 17008KT 26/19 A2996 RMK A01 T02630190  RH  064%=      5-min Rain = 0
KDO2 111004Z 17008KT 26/19 A2996 RMK A01 T02630190  RH  064%=      5-min Rain = 0
KDO2 111005Z 17009KT 26/19 A2996 RMK A01 T02640190  RH  064%=      5-min Rain = 0
KDO2 111006Z 17008KT 26/19 A2996 RMK A01 T02630190  RH  064%=      5-min Rain = 0
KDO2 111007Z 17009KT 26/19 A2996 RMK A01 T02630190  RH  064%=      5-min Rain = 0
KDO2 111008Z 17009KT 26/19 A2996 RMK A01 T02640190  RH  064%=      5-min Rain = 0
KDO2 111009Z 17007KT 26/19 A2996 RMK A01 T02640190  RH  064%=      5-min Rain = 0
KDO2 111010Z 17007KT 26/19 A2996 RMK A01 T02640190  RH  064%=      5-min Rain = 0
KDO2 111011Z 17010KT 26/19 A2996 RMK A01 T02630190  RH  064%=      5-min Rain = 0
KDO2 111012Z 17007KT 26/19 A2996 RMK A01 T02630190  RH  064%=      5-min Rain = 0
KDO2 111013Z 17008KT 26/19 A2996 RMK A01 T02630190  RH  064%=      5-min Rain = 0
KDO2 111014Z 16008KT 26/19 A2996 RMK A01 T02630190  RH  064%=      5-min Rain = 0
KDO2 111015Z 17008KT 26/19 A2996 RMK A01 T02630190  RH  064%=      5-min Rain = 0
KDO2 111016Z 17008KT 26/19 A2996 RMK A01 T02630189  RH  064%=      5-min Rain = 0
KDO2 111017Z 17008KT 26/19 A2996 RMK A01 T02630189  RH  064%=      5-min Rain = 0
KDO2 111018Z 17008KT 26/19 A2996 RMK A01 T02630189  RH  064%=      5-min Rain = 0
KDO2 111019Z 17010KT 26/19 A2996 RMK A01 T02630190  RH  064%=      5-min Rain = 0
KDO2 111020Z 17008KT 26/19 A2997 RMK A01 T02630189  RH  064%=      5-min Rain = 0
KDO2 111021Z 17007KT 26/19 A2997 RMK A01 T02640189  RH  064%=      5-min Rain = 0
KDO2 111022Z 17010KT 26/19 A2997 RMK A01 T02640189  RH  064%=      5-min Rain = 0
KDO2 111023Z 17011KT 26/19 A2997 RMK A01 T02640189  RH  064%=      5-min Rain = 0
KDO2 111024Z 16009KT 26/19 A2997 RMK A01 T02640189  RH  063%=      5-min Rain = 0
KDO2 111025Z 16008KT 26/19 A2997 RMK A01 T02640189  RH  063%=      5-min Rain = 0
KDO2 111026Z 16009KT 26/19 A2997 RMK A01 T02640189  RH  063%=      5-min Rain = 0
KDO2 111027Z 16007KT 26/19 A2997 RMK A01 T02640189  RH  064%=      5-min Rain = 0
KDO2 111028Z 17007KT 26/19 A2997 RMK A01 T02630189  RH  064%=      5-min Rain = 0
KDO2 111029Z 16008KT 26/19 A2997 RMK A01 T02630189  RH  064%=      5-min Rain = 0
KDO2 111030Z 17009KT 26/19 A2997 RMK A01 T02630189  RH  064%=      5-min Rain = 0
KDO2 111031Z 17008KT 26/19 A2997 RMK A01 T02620189  RH  064%=      5-min Rain = 0
KDO2 111032Z 16008KT 26/19 A2997 RMK A01 T02620189  RH  064%=      5-min Rain = 0
KDO2 111033Z 16008KT 26/19 A2997 RMK A01 T02620189  RH  064%=      5-min Rain = 0
KDO2 111034Z 16007KT 26/19 A2997 RMK A01 T02630190  RH  064%=      5-min Rain = 0
KDO2 111035Z 16007KT 26/19 A2997 RMK A01 T02620189  RH  064%=      5-min Rain = 0
KDO2 111036Z 16007KT 26/19 A2997 RMK A01 T02610189  RH  064%=      5-min Rain = 0
KDO2 111037Z 16009KT 26/19 A2997 RMK A01 T02610189  RH  064%=      5-min Rain = 0
KDO2 111038Z 17008KT 26/19 A2997 RMK A01 T02610189  RH  064%=      5-min Rain = 0
KDO2 111039Z 16007KT 26/19 A2997 RMK A01 T02610189  RH  064%=      5-min Rain = 0
KDO2 111040Z 16008KT 26/19 A2997 RMK A01 T02610189  RH  064%=      5-min Rain = 0
KDO2 111041Z 17009KT 26/19 A2997 RMK A01 T02620190  RH  064%=      5-min Rain = 0
KDO2 111042Z 16008KT 26/19 A2997 RMK A01 T02620189  RH  064%=      5-min Rain = 0
KDO2 111043Z 16007KT 26/19 A2997 RMK A01 T02610189  RH  064%=      5-min Rain = 0
KDO2 111044Z 16007KT 26/19 A2997 RMK A01 T02610189  RH  065%=      5-min Rain = 0
KDO2 111045Z 16008KT 26/19 A2997 RMK A01 T02610189  RH  065%=      5-min Rain = 0
KDO2 111046Z 16006KT 26/19 A2997 RMK A01 T02600189  RH  065%=      5-min Rain = 0
KDO2 111047Z 16007KT 26/19 A2997 RMK A01 T02600189  RH  065%=      5-min Rain = 0
KDO2 111048Z 16007KT 26/19 A2997 RMK A01 T02600189  RH  065%=      5-min Rain = 0
KDO2 111049Z 16009KT 26/19 A2997 RMK A01 T02590189  RH  065%=      5-min Rain = 0
KDO2 111050Z 17009KT 26/19 A2997 RMK A01 T02590189  RH  065%=      5-min Rain = 0
KDO2 111051Z 17008KT 26/19 A2997 RMK A01 T02600189  RH  065%=      5-min Rain = 0
KDO2 111052Z 16008KT 26/19 A2997 RMK A01 T02600189  RH  065%=      5-min Rain = 0
KDO2 111053Z 17008KT 26/19 A2997 RMK A01 T02600189  RH  065%=      5-min Rain = 0
KDO2 111054Z 16009KT 26/19 A2996 RMK A01 T02590189  RH  065%=      5-min Rain = 0
KDO2 111055Z 17009KT 26/19 A2997 RMK A01 T02590189  RH  065%=      5-min Rain = 0
KDO2 111056Z 17010KT 26/19 A2997 RMK A01 T02590189  RH  065%=      5-min Rain = 0
KDO2 111057Z 16010KT 26/19 A2996 RMK A01 T02590189  RH  065%=      5-min Rain = 0
KDO2 111058Z 17010KT 26/19 A2996 RMK A01 T02600189  RH  065%=      5-min Rain = 0
KDO2 111059Z 17008KT 26/19 A2997 RMK A01 T02600189  RH  065%=      5-min Rain = 0
KDO2 111100Z 16009KT 26/19 A2997 RMK A01 T02600189  RH  065%=      5-min Rain = 0
KDO2 111101Z 17010KT 26/19 A2997 RMK A01 T02590189  RH  065%=      5-min Rain = 0
KDO2 111102Z 17010KT 26/19 A2997 RMK A01 T02590189  RH  065%=      5-min Rain = 0
KDO2 111103Z 17010KT 26/19 A2997 RMK A01 T02590189  RH  065%=      5-min Rain = 0
KDO2 111104Z 16011KT 26/19 A2997 RMK A01 T02590189  RH  065%=      5-min Rain = 0
KDO2 111105Z 17010G15KT 26/19 A2996 RMK A01 T02590189  RH  065%=      5-min Rain = 0
KDO2 111106Z 16011KT 26/19 A2996 RMK A01 T02590190  RH  065%=      5-min Rain = 0
KDO2 111107Z 16010KT 26/19 A2996 RMK A01 T02590189  RH  065%=      5-min Rain = 0
KDO2 111108Z 16012KT 26/19 A2996 RMK A01 T02590189  RH  065%=      5-min Rain = 0
KDO2 111109Z 16009KT 26/19 A2996 RMK A01 T02590189  RH  065%=      5-min Rain = 0
KDO2 111110Z 17012KT 26/19 A2996 RMK A01 T02590190  RH  065%=      5-min Rain = 0
KDO2 111111Z 17010KT 26/19 A2996 RMK A01 T02590189  RH  066%=      5-min Rain = 0
KDO2 111112Z 16011KT 26/19 A2996 RMK A01 T02580189  RH  066%=      5-min Rain = 0
KDO2 111113Z 16010KT 26/19 A2996 RMK A01 T02580190  RH  066%=      5-min Rain = 0
KDO2 111114Z 17011KT 26/19 A2996 RMK A01 T02580189  RH  066%=      5-min Rain = 0
KDO2 111115Z 17011KT 26/19 A2996 RMK A01 T02580189  RH  066%=      5-min Rain = 0
KDO2 111116Z 16012KT 26/19 A2996 RMK A01 T02580190  RH  066%=      5-min Rain = 0
KDO2 111117Z 17011KT 26/19 A2996 RMK A01 T02580189  RH  066%=      5-min Rain = 0
KDO2 111118Z 17012KT 26/19 A2996 RMK A01 T02590190  RH  066%=      5-min Rain = 0
KDO2 111119Z 16009KT 26/19 A2996 RMK A01 T02580190  RH  066%=      5-min Rain = 0
KDO2 111120Z 17008KT 26/19 A2996 RMK A01 T02580189  RH  066%=      5-min Rain = 0
KDO2 111121Z 17010KT 26/19 A2997 RMK A01 T02570189  RH  066%=      5-min Rain = 0
KDO2 111122Z 17011KT 26/19 A2997 RMK A01 T02560189  RH  066%=      5-min Rain = 0
KDO2 111123Z 16011KT 26/19 A2997 RMK A01 T02560189  RH  066%=      5-min Rain = 0
KDO2 111124Z 17011KT 26/19 A2997 RMK A01 T02570189  RH  066%=      5-min Rain = 0
KDO2 111125Z 17009KT 26/19 A2997 RMK A01 T02570189  RH  066%=      5-min Rain = 0
KDO2 111126Z 17010KT 26/19 A2997 RMK A01 T02570189  RH  066%=      5-min Rain = 0
KDO2 111127Z 17009KT 26/19 A2997 RMK A01 T02560189  RH  067%=      5-min Rain = 0
KDO2 111128Z 17011KT 26/19 A2997 RMK A01 T02560190  RH  067%=      5-min Rain = 0
KDO2 111129Z 17011KT 26/19 A2997 RMK A01 T02560190  RH  067%=      5-min Rain = 0
KDO2 111130Z 17011KT 26/19 A2997 RMK A01 T02560189  RH  066%=      5-min Rain = 0
KDO2 111131Z 17010KT 26/19 A2997 RMK A01 T02560189  RH  066%=      5-min Rain = 0
KDO2 111132Z 17011KT 26/19 A2997 RMK A01 T02560189  RH  066%=      5-min Rain = 0
KDO2 111133Z 17011KT 26/19 A2997 RMK A01 T02560190  RH  066%=      5-min Rain = 0
KDO2 111134Z 17009KT 26/19 A2997 RMK A01 T02560190  RH  066%=      5-min Rain = 0
KDO2 111135Z 17009G15KT 26/19 A2997 RMK A01 T02560189  RH  067%=      5-min Rain = 0
KDO2 111136Z 18013KT 26/19 A2997 RMK A01 T02560189  RH  067%=      5-min Rain = 0
KDO2 111137Z 17011KT 26/19 A2997 RMK A01 T02560189  RH  067%=      5-min Rain = 0
KDO2 111138Z 17009KT 26/19 A2997 RMK A01 T02560189  RH  067%=      5-min Rain = 0
KDO2 111139Z 17010KT 26/19 A2997 RMK A01 T02560189  RH  067%=      5-min Rain = 0
KDO2 111140Z 17009KT 26/19 A2997 RMK A01 T02560189  RH  067%=      5-min Rain = 0
KDO2 111141Z 17009KT 26/19 A2997 RMK A01 T02550189  RH  067%=      5-min Rain = 0
KDO2 111142Z 17012KT 26/19 A2997 RMK A01 T02550189  RH  067%=      5-min Rain = 0
KDO2 111143Z 18011KT 26/19 A2997 RMK A01 T02550189  RH  067%=      5-min Rain = 0
KDO2 111144Z 18011KT 26/19 A2997 RMK A01 T02550189  RH  067%=      5-min Rain = 0
KDO2 111145Z 17010KT 26/19 A2997 RMK A01 T02550189  RH  067%=      5-min Rain = 0
KDO2 111146Z 17010KT 26/19 A2997 RMK A01 T02550189  RH  067%=      5-min Rain = 0
KDO2 111147Z 18009KT 25/19 A2997 RMK A01 T02540189  RH  067%=      5-min Rain = 0
KDO2 111148Z 17010KT 26/19 A2997 RMK A01 T02550189  RH  067%=      5-min Rain = 0
KDO2 111149Z 17010KT 26/19 A2997 RMK A01 T02550189  RH  067%=      5-min Rain = 0
KDO2 111150Z 17012KT 25/19 A2997 RMK A01 T02540189  RH  067%=      5-min Rain = 0
KDO2 111151Z 17011KT 25/19 A2997 RMK A01 T02540189  RH  067%=      5-min Rain = 0
KDO2 111152Z 17010KT 25/19 A2998 RMK A01 T02540189  RH  067%=      5-min Rain = 0
KDO2 111153Z 16009KT 25/19 A2998 RMK A01 T02540189  RH  067%=      5-min Rain = 0
KDO2 111154Z 17010KT 25/19 A2998 RMK A01 T02540189  RH  067%=      5-min Rain = 0
KDO2 111155Z 17009KT 25/19 A2998 RMK A01 T02530189  RH  067%=      5-min Rain = 0
KDO2 111156Z 17010KT 25/19 A2998 RMK A01 T02530189  RH  068%=      5-min Rain = 0
KDO2 111157Z 17010KT 25/19 A2998 RMK A01 T02530189  RH  067%=      5-min Rain = 0
KDO2 111158Z 17010KT 25/19 A2998 RMK A01 T02530189  RH  067%=      5-min Rain = 0
KDO2 111159Z 17012G17KT 25/19 A2998 RMK A01 T02530189  RH  067%=      5-min Rain = 0
KDO2 111200Z 17010KT 25/19 A2998 RMK A01 T02530189  RH  067%=      5-min Rain = 0
KDO2 111201Z 17010KT 25/19 A2998 RMK A01 T02530188  RH  067%=      5-min Rain = 0
KDO2 111202Z 17009KT 25/19 A2998 RMK A01 T02530189  RH  067%=      5-min Rain = 0
KDO2 111203Z 17010KT 25/19 A2998 RMK A01 T02530189  RH  067%=      5-min Rain = 0
KDO2 111204Z 18011G16KT 25/19 A2998 RMK A01 T02530188  RH  067%=      5-min Rain = 0
KDO2 111205Z 17009KT 25/19 A2998 RMK A01 T02530188  RH  067%=      5-min Rain = 0
KDO2 111206Z 17010KT 25/19 A2998 RMK A01 T02530189  RH  067%=      5-min Rain = 0
KDO2 111207Z 18008KT 25/19 A2998 RMK A01 T02530189  RH  067%=      5-min Rain = 0
KDO2 111208Z 17010KT 25/19 A2998 RMK A01 T02520188  RH  068%=      5-min Rain = 0
KDO2 111209Z 18009KT 25/19 A2999 RMK A01 T02520188  RH  068%=      5-min Rain = 0
KDO2 111210Z 17009KT 25/19 A2999 RMK A01 T02520188  RH  068%=      5-min Rain = 0
KDO2 111211Z 17009KT 25/19 A2999 RMK A01 T02510188  RH  068%=      5-min Rain = 0
KDO2 111212Z 18010KT 25/19 A2999 RMK A01 T02510188  RH  068%=      5-min Rain = 0
KDO2 111213Z 17011KT 25/19 A2999 RMK A01 T02520188  RH  068%=      5-min Rain = 0
KDO2 111214Z 17009KT 25/19 A2999 RMK A01 T02520188  RH  068%=      5-min Rain = 0
KDO2 111215Z 18009KT 25/19 A2999 RMK A01 T02520188  RH  068%=      5-min Rain = 0
KDO2 111216Z 17009KT 25/19 A2999 RMK A01 T02520189  RH  068%=      5-min Rain = 0
KDO2 111217Z 17009KT 25/19 A2999 RMK A01 T02520189  RH  068%=      5-min Rain = 0
KDO2 111218Z 17008KT 25/19 A2999 RMK A01 T02510188  RH  068%=      5-min Rain = 0
KDO2 111219Z 17008KT 25/19 A2999 RMK A01 T02510189  RH  068%=      5-min Rain = 0
KDO2 111220Z 17011KT 25/19 A2999 RMK A01 T02510189  RH  068%=      5-min Rain = 0
KDO2 111221Z 17010KT 25/19 A2999 RMK A01 T02510189  RH  068%=      5-min Rain = 0
KDO2 111222Z 18010KT 25/19 A2999 RMK A01 T02510188  RH  068%=      5-min Rain = 0
KDO2 111223Z 18011KT 25/19 A2999 RMK A01 T02510189  RH  068%=      5-min Rain = 0
KDO2 111224Z 18009KT 25/19 A2999 RMK A01 T02510189  RH  068%=      5-min Rain = 0
KDO2 111225Z 18011KT 25/19 A2999 RMK A01 T02520189  RH  068%=      5-min Rain = 0
KDO2 111226Z 18010KT 25/19 A2999 RMK A01 T02510189  RH  068%=      5-min Rain = 0
KDO2 111227Z 18009KT 25/19 A2999 RMK A01 T02510189  RH  068%=      5-min Rain = 0
KDO2 111228Z 18012KT 25/19 A2999 RMK A01 T02510189  RH  068%=      5-min Rain = 0
KDO2 111229Z 18012KT 25/19 A2999 RMK A01 T02520189  RH  068%=      5-min Rain = 0
KDO2 111230Z 18012KT 25/19 A2999 RMK A01 T02520190  RH  068%=      5-min Rain = 0
KDO2 111231Z 18013KT 25/19 A2999 RMK A01 T02530190  RH  068%=      5-min Rain = 0
KDO2 111232Z 18011KT 25/19 A2999 RMK A01 T02530189  RH  068%=      5-min Rain = 0
KDO2 111233Z 18009KT 25/19 A30 RMK A01 T02530190  RH  068%=      5-min Rain = 0
KDO2 111234Z 17010KT 25/19 A2999 RMK A01 T02530190  RH  068%=      5-min Rain = 0
KDO2 111235Z 17013KT 25/19 A30 RMK A01 T02530190  RH  068%=      5-min Rain = 0
KDO2 111236Z 18011KT 25/19 A30 RMK A01 T02530191  RH  068%=      5-min Rain = 0
KDO2 111237Z 18011KT 25/19 A30 RMK A01 T02530190  RH  068%=      5-min Rain = 0
KDO2 111238Z 18010G15KT 25/19 A30 RMK A01 T02530190  RH  068%=      5-min Rain = 0
KDO2 111239Z 18011KT 25/19 A30 RMK A01 T02530190  RH  068%=      5-min Rain = 0
KDO2 111240Z 17010KT 25/19 A30 RMK A01 T02540191  RH  068%=      5-min Rain = 0
KDO2 111241Z 18010KT 25/19 A30 RMK A01 T02540191  RH  068%=      5-min Rain = 0
KDO2 111242Z 18008KT 25/19 A30 RMK A01 T02540191  RH  068%=      5-min Rain = 0
KDO2 111243Z 18008KT 25/19 A30 RMK A01 T02540191  RH  068%=      5-min Rain = 0
KDO2 111244Z 19010KT 25/19 A30 RMK A01 T02540191  RH  068%=      5-min Rain = 0
KDO2 111245Z 18010KT 25/19 A30 RMK A01 T02540191  RH  068%=      5-min Rain = 0
KDO2 111246Z 18009KT 25/19 A30 RMK A01 T02540191  RH  068%=      5-min Rain = 0
KDO2 111247Z 18009KT 25/19 A30 RMK A01 T02540191  RH  068%=      5-min Rain = 0
KDO2 111248Z 17007KT 26/19 A30 RMK A01 T02550192  RH  068%=      5-min Rain = 0
KDO2 111249Z 18007KT 26/19 A30 RMK A01 T02550192  RH  068%=      5-min Rain = 0
KDO2 111250Z 18009KT 26/19 A30 RMK A01 T02550192  RH  068%=      5-min Rain = 0
KDO2 111251Z 19008KT 26/19 A30 RMK A01 T02550192  RH  068%=      5-min Rain = 0
KDO2 111252Z 17006KT 26/19 A3001 RMK A01 T02560192  RH  068%=      5-min Rain = 0
KDO2 111253Z 18006KT 26/19 A3001 RMK A01 T02560192  RH  068%=      5-min Rain = 0
KDO2 111254Z 20007KT 26/19 A3001 RMK A01 T02560192  RH  068%=      5-min Rain = 0
KDO2 111255Z 18006KT 26/19 A3001 RMK A01 T02560192  RH  068%=      5-min Rain = 0
KDO2 111256Z 19006KT 26/19 A3001 RMK A01 T02570193  RH  068%=      5-min Rain = 0
KDO2 111257Z 19008KT 26/19 A3001 RMK A01 T02570192  RH  067%=      5-min Rain = 0
KDO2 111258Z 19006KT 26/19 A3001 RMK A01 T02580192  RH  067%=      5-min Rain = 0
KDO2 111259Z 26002KT 26/19 A3001 RMK A01 T02580193  RH  067%=      5-min Rain = 0
KDO2 111300Z 22002KT 26/19 A3002 RMK A01 T02580194  RH  068%=      5-min Rain = 0
KDO2 111301Z 20003KT 26/19 A3002 RMK A01 T02590194  RH  067%=      5-min Rain = 0
KDO2 111302Z 21004KT 26/19 A3002 RMK A01 T02590193  RH  067%=      5-min Rain = 0
KDO2 111303Z 18004KT 26/19 A3002 RMK A01 T02600193  RH  067%=      5-min Rain = 0
KDO2 111304Z 26001KT 26/19 A3002 RMK A01 T02600194  RH  067%=      5-min Rain = 0
KDO2 111305Z 23002KT 26/19 A3002 RMK A01 T02600193  RH  066%=      5-min Rain = 0
KDO2 111306Z 21002KT 26/19 A3002 RMK A01 T02610194  RH  067%=      5-min Rain = 0
KDO2 111307Z 32000KT 26/20 A3002 RMK A01 T02610195  RH  067%=      5-min Rain = 0
KDO2 111308Z 32002KT 26/20 A3003 RMK A01 T02610197  RH  068%=      5-min Rain = 0
KDO2 111309Z 27001KT 26/20 A3003 RMK A01 T02610196  RH  068%=      5-min Rain = 0
KDO2 111310Z 32003KT 26/20 A3003 RMK A01 T02610195  RH  067%=      5-min Rain = 0
KDO2 111311Z 33004KT 26/20 A3003 RMK A01 T02610196  RH  068%=      5-min Rain = 0
KDO2 111312Z 35004KT 26/20 A3003 RMK A01 T02600198  RH  068%=      5-min Rain = 0
KDO2 111313Z 35003KT 26/20 A3003 RMK A01 T02600198  RH  069%=      5-min Rain = 0
KDO2 111314Z 36001KT 26/20 A3003 RMK A01 T02600195  RH  067%=      5-min Rain = 0
KDO2 111315Z 15000KT 26/20 A3003 RMK A01 T02610199  RH  069%=      5-min Rain = 0
KDO2 111316Z 13001KT 26/20 A3003 RMK A01 T02620198  RH  068%=      5-min Rain = 0
KDO2 111317Z 16002KT 26/20 A3003 RMK A01 T02630196  RH  067%=      5-min Rain = 0
KDO2 111318Z 17002KT 26/19 A3003 RMK A01 T02630194  RH  066%=      5-min Rain = 0
KDO2 111319Z 20002KT 26/20 A3003 RMK A01 T02640195  RH  066%=      5-min Rain = 0
KDO2 111320Z 21002KT 26/20 A3003 RMK A01 T02640198  RH  067%=      5-min Rain = 0
KDO2 111321Z 21002KT 26/20 A3003 RMK A01 T02640197  RH  067%=      5-min Rain = 0
KDO2 111322Z 22002KT 26/20 A3003 RMK A01 T02640196  RH  066%=      5-min Rain = 0
KDO2 111323Z 21005KT 26/20 A3003 RMK A01 T02640198  RH  067%=      5-min Rain = 0
KDO2 111324Z 22008KT 26/20 A3003 RMK A01 T02640197  RH  067%=      5-min Rain = 0
KDO2 111325Z 21007KT 26/20 A3003 RMK A01 T02640197  RH  066%=      5-min Rain = 0
KDO2 111326Z 20007KT 26/20 A3003 RMK A01 T02640196  RH  066%=      5-min Rain = 0
KDO2 111327Z 20007KT 26/20 A3003 RMK A01 T02640197  RH  067%=      5-min Rain = 0
KDO2 111328Z 19006KT 26/20 A3003 RMK A01 T02640197  RH  067%=      5-min Rain = 0
KDO2 111329Z 19006KT 26/20 A3003 RMK A01 T02630199  RH  068%=      5-min Rain = 0
KDO2 111330Z 19009KT 26/20 A3003 RMK A01 T02640200  RH  068%=      5-min Rain = 0
KDO2 111331Z 20008KT 26/20 A3002 RMK A01 T02640195  RH  066%=      5-min Rain = 0
KDO2 111332Z 19008KT 26/20 A3002 RMK A01 T02640195  RH  066%=      5-min Rain = 0
KDO2 111333Z 17008KT 26/20 A3002 RMK A01 T02640196  RH  066%=      5-min Rain = 0
KDO2 111334Z 18010KT 27/20 A3002 RMK A01 T02650196  RH  066%=      5-min Rain = 0
KDO2 111335Z 19010KT 27/20 A3002 RMK A01 T02650196  RH  066%=      5-min Rain = 0
KDO2 111336Z 18009KT 27/20 A3002 RMK A01 T02650195  RH  065%=      5-min Rain = 0
KDO2 111337Z 19010KT 27/20 A3002 RMK A01 T02650196  RH  066%=      5-min Rain = 0
KDO2 111338Z 18010KT 27/20 A3003 RMK A01 T02660195  RH  065%=      5-min Rain = 0
KDO2 111339Z 19009KT 27/19 A3003 RMK A01 T02660193  RH  064%=      5-min Rain = 0
KDO2 111340Z 19010KT 27/20 A3003 RMK A01 T02670196  RH  065%=      5-min Rain = 0
KDO2 111341Z 20010KT 27/19 A3003 RMK A01 T02670194  RH  064%=      5-min Rain = 0
KDO2 111342Z 19012KT 27/19 A3003 RMK A01 T02670192  RH  063%=      5-min Rain = 0
KDO2 111343Z 19010KT 27/19 A3003 RMK A01 T02680192  RH  063%=      5-min Rain = 0
KDO2 111344Z 19010KT 27/19 A3003 RMK A01 T02680192  RH  063%=      5-min Rain = 0
KDO2 111345Z 19009KT 27/19 A3003 RMK A01 T02680193  RH  064%=      5-min Rain = 0
KDO2 111346Z 19010KT 27/19 A3003 RMK A01 T02690193  RH  063%=      5-min Rain = 0
KDO2 111347Z 19010KT 27/19 A3003 RMK A01 T02690192  RH  063%=      5-min Rain = 0
KDO2 111348Z 19007KT 27/20 A3003 RMK A01 T02700195  RH  063%=      5-min Rain = 0
KDO2 111349Z 19008KT 27/20 A3003 RMK A01 T02710196  RH  063%=      5-min Rain = 0
KDO2 111350Z 18010KT 27/19 A3003 RMK A01 T02710193  RH  062%=      5-min Rain = 0
KDO2 111351Z 19008KT 27/19 A3003 RMK A01 T02710191  RH  062%=      5-min Rain = 0
KDO2 111352Z 19008KT 27/19 A3003 RMK A01 T02710193  RH  062%=      5-min Rain = 0
KDO2 111353Z 18011KT 27/19 A3003 RMK A01 T02720191  RH  061%=      5-min Rain = 0
KDO2 111354Z 18012KT 27/19 A3003 RMK A01 T02720188  RH  060%=      5-min Rain = 0
KDO2 111355Z 18009KT 27/19 A3003 RMK A01 T02720189  RH  060%=      5-min Rain = 0
KDO2 111356Z 18009KT 27/19 A3003 RMK A01 T02720193  RH  062%=      5-min Rain = 0
KDO2 111357Z 19008KT 27/19 A3003 RMK A01 T02730192  RH  061%=      5-min Rain = 0
KDO2 111358Z 19008KT 27/19 A3003 RMK A01 T02730191  RH  061%=      5-min Rain = 0
KDO2 111359Z 18008KT 27/19 A3003 RMK A01 T02730192  RH  061%=      5-min Rain = 0
KDO2 111400Z 19008KT 27/19 A3003 RMK A01 T02740190  RH  060%=      5-min Rain = 0
KDO2 111401Z 18009KT 27/19 A3003 RMK A01 T02740190  RH  060%=      5-min Rain = 0
KDO2 111402Z 18009KT 28/19 A3003 RMK A01 T02750190  RH  060%=      5-min Rain = 0
KDO2 111403Z 18012KT 28/19 A3003 RMK A01 T02760186  RH  058%=      5-min Rain = 0
KDO2 111404Z 20009KT 28/19 A3004 RMK A01 T02760186  RH  058%=      5-min Rain = 0
KDO2 111405Z 18005G10KT 28/19 A3004 RMK A01 T02760189  RH  059%=      5-min Rain = 0
KDO2 111406Z 19008KT 28/19 A3004 RMK A01 T02770191  RH  060%=      5-min Rain = 0
KDO2 111407Z 19008KT 28/19 A3004 RMK A01 T02770192  RH  060%=      5-min Rain = 0
KDO2 111408Z 18010KT 28/19 A3004 RMK A01 T02780188  RH  058%=      5-min Rain = 0
KDO2 111409Z 18010KT 28/19 A3004 RMK A01 T02790187  RH  058%=      5-min Rain = 0
KDO2 111410Z 19007KT 28/19 A3004 RMK A01 T02790187  RH  057%=      5-min Rain = 0
KDO2 111411Z 18006KT 28/19 A3004 RMK A01 T02790191  RH  059%=      5-min Rain = 0
KDO2 111412Z 19007KT 28/19 A3004 RMK A01 T02800188  RH  058%=      5-min Rain = 0
KDO2 111413Z 20007KT 28/19 A3004 RMK A01 T02800190  RH  058%=      5-min Rain = 0
KDO2 111414Z 21005KT 28/19 A3004 RMK A01 T02800187  RH  057%=      5-min Rain = 0
KDO2 111415Z 20007KT 28/19 A3004 RMK A01 T02800189  RH  058%=      5-min Rain = 0
KDO2 111416Z 20008KT 28/19 A3004 RMK A01 T02810189  RH  058%=      5-min Rain = 0
KDO2 111417Z 18008KT 28/19 A3004 RMK A01 T02810189  RH  057%=      5-min Rain = 0
KDO2 111418Z 19008KT 28/19 A3004 RMK A01 T02810185  RH  056%=      5-min Rain = 0
KDO2 111419Z 19008KT 28/19 A3004 RMK A01 T02820187  RH  056%=      5-min Rain = 0
KDO2 111420Z 19006KT 28/19 A3004 RMK A01 T02820189  RH  057%=      5-min Rain = 0
KDO2 111421Z 21008KT 28/19 A3004 RMK A01 T02830190  RH  057%=      5-min Rain = 0
KDO2 111422Z 20009KT 28/19 A3004 RMK A01 T02830189  RH  057%=      5-min Rain = 0
KDO2 111423Z 21009KT 28/19 A3004 RMK A01 T02830186  RH  056%=      5-min Rain = 0
KDO2 111424Z 20009KT 28/19 A3004 RMK A01 T02830187  RH  056%=      5-min Rain = 0
KDO2 111425Z 21007KT 28/19 A3004 RMK A01 T02830186  RH  056%=      5-min Rain = 0
KDO2 111426Z 21008KT 28/19 A3004 RMK A01 T02830188  RH  056%=      5-min Rain = 0
KDO2 111427Z 21006KT 28/19 A3003 RMK A01 T02830187  RH  056%=      5-min Rain = 0
KDO2 111428Z 20007KT 28/19 A3003 RMK A01 T02840189  RH  056%=      5-min Rain = 0
KDO2 111429Z 19010KT 29/19 A3003 RMK A01 T02850185  RH  055%=      5-min Rain = 0
KDO2 111430Z 20012KT 29/18 A3003 RMK A01 T02850183  RH  054%=      5-min Rain = 0
KDO2 111431Z 20010KT 29/18 A3003 RMK A01 T02850184  RH  054%=      5-min Rain = 0
KDO2 111432Z 20009KT 29/18 A3003 RMK A01 T02850182  RH  054%=      5-min Rain = 0
KDO2 111433Z 20010KT 29/18 A3003 RMK A01 T02860183  RH  054%=      5-min Rain = 0
KDO2 111434Z 20011KT 29/18 A3003 RMK A01 T02850180  RH  053%=      5-min Rain = 0
KDO2 111435Z 21012KT 29/18 A3003 RMK A01 T02860181  RH  053%=      5-min Rain = 0
KDO2 111436Z 21009KT 29/18 A3003 RMK A01 T02860180  RH  052%=      5-min Rain = 0
KDO2 111437Z 21009KT 29/18 A3003 RMK A01 T02870182  RH  053%=      5-min Rain = 0
KDO2 111438Z 21009KT 29/18 A3004 RMK A01 T02870183  RH  053%=      5-min Rain = 0
KDO2 111439Z 20009KT 29/18 A3004 RMK A01 T02880183  RH  053%=      5-min Rain = 0
KDO2 111440Z 19008KT 29/19 A3004 RMK A01 T02880185  RH  054%=      5-min Rain = 0
KDO2 111441Z 19008KT 29/19 A3004 RMK A01 T02890185  RH  053%=      5-min Rain = 0
KDO2 111442Z 20008KT 29/18 A3004 RMK A01 T02890184  RH  053%=      5-min Rain = 0
KDO2 111443Z 21007KT 29/18 A3004 RMK A01 T02890184  RH  053%=      5-min Rain = 0
KDO2 111444Z 20005KT 29/19 A3004 RMK A01 T02890186  RH  054%=      5-min Rain = 0
KDO2 111445Z 20004KT 29/19 A3004 RMK A01 T02910187  RH  053%=      5-min Rain = 0
KDO2 111446Z 21006KT 29/18 A3004 RMK A01 T02910183  RH  052%=      5-min Rain = 0
KDO2 111447Z 23007KT 29/19 A3004 RMK A01 T02910185  RH  053%=      5-min Rain = 0
KDO2 111448Z 22009KT 29/18 A3004 RMK A01 T02930184  RH  052%=      5-min Rain = 0
KDO2 111449Z 21008G13KT 29/19 A3004 RMK A01 T02930185  RH  052%=      5-min Rain = 0
KDO2 111450Z 22007KT 29/18 A3004 RMK A01 T02930183  RH  051%=      5-min Rain = 0
KDO2 111451Z 22008KT 29/19 A3004 RMK A01 T02940188  RH  053%=      5-min Rain = 0
KDO2 111452Z 22008KT 29/18 A3004 RMK A01 T02930181  RH  051%=      5-min Rain = 0
KDO2 111453Z 23004KT 29/18 A3004 RMK A01 T02920184  RH  052%=      5-min Rain = 0
KDO2 111454Z 24006KT 29/18 A3004 RMK A01 T02930180  RH  051%=      5-min Rain = 0
KDO2 111455Z 22009KT 29/18 A3004 RMK A01 T02940183  RH  051%=      5-min Rain = 0
KDO2 111456Z 24007KT 29/18 A3004 RMK A01 T02940179  RH  050%=      5-min Rain = 0
KDO2 111457Z 24006KT 29/18 A3004 RMK A01 T02940182  RH  051%=      5-min Rain = 0
KDO2 111458Z 19006KT 30/18 A3004 RMK A01 T02950184  RH  051%=      5-min Rain = 0
KDO2 111459Z 19007KT 30/18 A3004 RMK A01 T02950183  RH  051%=      5-min Rain = 0
KDO2 111500Z 20008KT 30/18 A3004 RMK A01 T02960184  RH  051%=      5-min Rain = 0
KDO2 111501Z 22004KT 30/18 A3004 RMK A01 T02960180  RH  050%=      5-min Rain = 0
KDO2 111502Z 24006KT 30/18 A3004 RMK A01 T02960184  RH  051%=      5-min Rain = 0
KDO2 111503Z 21007KT 30/19 A3004 RMK A01 T02970185  RH  051%=      5-min Rain = 0
KDO2 111504Z 19007KT 30/18 A3004 RMK A01 T02970183  RH  050%=      5-min Rain = 0
KDO2 111505Z 18009KT 30/18 A3004 RMK A01 T02970179  RH  049%=      5-min Rain = 0
KDO2 111506Z 19007KT 30/18 A3004 RMK A01 T02960179  RH  049%=      5-min Rain = 0
KDO2 111507Z 20006KT 30/18 A3004 RMK A01 T02950182  RH  050%=      5-min Rain = 0
KDO2 111508Z 19007KT 30/19 A3004 RMK A01 T02960187  RH  052%=      5-min Rain = 0
KDO2 111509Z 18007KT 30/18 A3004 RMK A01 T02970184  RH  051%=      5-min Rain = 0
KDO2 111510Z 20008KT 30/19 A3004 RMK A01 T02970186  RH  051%=      5-min Rain = 0
KDO2 111511Z 21008KT 30/18 A3004 RMK A01 T02980181  RH  050%=      5-min Rain = 0
KDO2 111512Z 21009KT 30/18 A3004 RMK A01 T02970178  RH  049%=      5-min Rain = 0
KDO2 111513Z 20009KT 30/18 A3004 RMK A01 T02970177  RH  049%=      5-min Rain = 0
KDO2 111514Z 18010KT 30/18 A3004 RMK A01 T02970181  RH  050%=      5-min Rain = 0
KDO2 111515Z 18011KT 30/18 A3004 RMK A01 T02970177  RH  049%=      5-min Rain = 0
KDO2 111516Z 19013KT 30/18 A3004 RMK A01 T02970177  RH  049%=      5-min Rain = 0
KDO2 111517Z 21009KT 30/18 A3004 RMK A01 T02970175  RH  048%=      5-min Rain = 0
KDO2 111518Z 19010KT 30/18 A3004 RMK A01 T02980177  RH  048%=      5-min Rain = 0
KDO2 111519Z 19009G14KT 30/18 A3004 RMK A01 T02980179  RH  049%=      5-min Rain = 0
KDO2 111520Z 21014KT 30/18 A3004 RMK A01 T02990179  RH  049%=      5-min Rain = 0
KDO2 111521Z 21010KT 30/18 A3004 RMK A01 T02990176  RH  048%=      5-min Rain = 0
KDO2 111522Z 21009KT 30/18 A3004 RMK A01 T02990178  RH  048%=      5-min Rain = 0
KDO2 111523Z 22008KT 30/18 A3004 RMK A01 T02990180  RH  049%=      5-min Rain = 0
KDO2 111524Z 22008KT 30/18 A3004 RMK A01 T03000181  RH  049%=      5-min Rain = 0
KDO2 111525Z 20008KT 30/18 A3004 RMK A01 T03010183  RH  049%=      5-min Rain = 0
KDO2 111526Z 21006KT 30/19 A3004 RMK A01 T03020186  RH  050%=      5-min Rain = 0
KDO2 111527Z 21008KT 30/19 A3004 RMK A01 T03030189  RH  050%=      5-min Rain = 0
KDO2 111528Z 20009KT 30/19 A3004 RMK A01 T03040185  RH  049%=      5-min Rain = 0
KDO2 111529Z 19011KT 31/18 A3004 RMK A01 T03050183  RH  048%=      5-min Rain = 0
KDO2 111530Z 21009KT 31/18 A3004 RMK A01 T03050178  RH  047%=      5-min Rain = 0
KDO2 111531Z 21008KT 30/18 A3004 RMK A01 T03040178  RH  047%=      5-min Rain = 0
KDO2 111532Z 19009KT 30/18 A3004 RMK A01 T03030182  RH  048%=      5-min Rain = 0
KDO2 111533Z 20009KT 31/18 A3004 RMK A01 T03050183  RH  048%=      5-min Rain = 0
KDO2 111534Z 20009KT 31/19 A3004 RMK A01 T03070187  RH  049%=      5-min Rain = 0
KDO2 111535Z 19011KT 31/18 A3004 RMK A01 T03080184  RH  047%=      5-min Rain = 0
KDO2 111536Z 20011KT 31/18 A3004 RMK A01 T03090182  RH  047%=      5-min Rain = 0
KDO2 111537Z 19009KT 31/18 A3004 RMK A01 T03080177  RH  045%=      5-min Rain = 0
KDO2 111538Z 20011KT 31/18 A3004 RMK A01 T03070178  RH  046%=      5-min Rain = 0
KDO2 111539Z 20011KT 31/17 A3004 RMK A01 T03070174  RH  045%=      5-min Rain = 0
KDO2 111540Z 20011KT 31/18 A3004 RMK A01 T03070178  RH  046%=      5-min Rain = 0
KDO2 111541Z 20010KT 31/18 A3004 RMK A01 T03080178  RH  046%=      5-min Rain = 0
KDO2 111542Z 20011KT 31/18 A3004 RMK A01 T03090175  RH  045%=      5-min Rain = 0
KDO2 111543Z 20010KT 31/18 A3004 RMK A01 T03090179  RH  046%=      5-min Rain = 0
KDO2 111544Z 21010KT 31/17 A3004 RMK A01 T03090173  RH  044%=      5-min Rain = 0
KDO2 111545Z 21008KT 31/17 A3004 RMK A01 T03090173  RH  044%=      5-min Rain = 0
KDO2 111546Z 21009KT 31/18 A3004 RMK A01 T03090175  RH  045%=      5-min Rain = 0
KDO2 111547Z 22007KT 31/18 A3004 RMK A01 T03110184  RH  047%=      5-min Rain = 0
KDO2 111548Z 21008G13KT 31/18 A3004 RMK A01 T03130182  RH  046%=      5-min Rain = 0
KDO2 111549Z 21010KT 31/18 A3004 RMK A01 T03140178  RH  044%=      5-min Rain = 0
KDO2 111550Z 19010KT 31/18 A3004 RMK A01 T03130177  RH  044%=      5-min Rain = 0
KDO2 111551Z 19007KT 31/18 A3004 RMK A01 T03130177  RH  044%=      5-min Rain = 0
KDO2 111552Z 18008KT 31/18 A3004 RMK A01 T03130177  RH  044%=      5-min Rain = 0
KDO2 111553Z 21011KT 31/18 A3004 RMK A01 T03130176  RH  044%=      5-min Rain = 0
KDO2 111554Z 21011KT 31/18 A3004 RMK A01 T03140175  RH  044%=      5-min Rain = 0
KDO2 111555Z 20010KT 32/18 A3004 RMK A01 T03150179  RH  044%=      5-min Rain = 0
KDO2 111556Z 21008KT 32/17 A3004 RMK A01 T03150174  RH  043%=      5-min Rain = 0
KDO2 111557Z 22009KT 32/17 A3004 RMK A01 T03150173  RH  043%=      5-min Rain = 0
KDO2 111558Z 20009KT 32/18 A3004 RMK A01 T03160181  RH  045%=      5-min Rain = 0
KDO2 111559Z 20011KT 32/17 A3004 RMK A01 T03180172  RH  042%=      5-min Rain = 0
KDO2 111600Z 21008KT 32/17 A3004 RMK A01 T03160172  RH  042%=      5-min Rain = 0
KDO2 111601Z 22009KT 32/18 A3004 RMK A01 T03160178  RH  044%=      5-min Rain = 0
KDO2 111602Z 21008KT 32/18 A3004 RMK A01 T03180180  RH  044%=      5-min Rain = 0
KDO2 111603Z 20009KT 32/18 A3004 RMK A01 T03200178  RH  043%=      5-min Rain = 0
KDO2 111604Z 19009KT 32/18 A3004 RMK A01 T03190179  RH  043%=      5-min Rain = 0
KDO2 111605Z 20009KT 32/18 A3004 RMK A01 T03190181  RH  044%=      5-min Rain = 0
KDO2 111606Z 20007KT 32/18 A3004 RMK A01 T03190180  RH  043%=      5-min Rain = 0
KDO2 111607Z 20005KT 32/18 A3004 RMK A01 T03190177  RH  043%=      5-min Rain = 0
KDO2 111608Z 22008KT 32/18 A3004 RMK A01 T03190179  RH  043%=      5-min Rain = 0
KDO2 111609Z 21009KT 32/17 A3004 RMK A01 T03190171  RH  041%=      5-min Rain = 0
KDO2 111610Z 21010KT 32/17 A3004 RMK A01 T03180174  RH  042%=      5-min Rain = 0
KDO2 111611Z 20007KT 32/18 A3004 RMK A01 T03190176  RH  043%=      5-min Rain = 0
KDO2 111612Z 18009KT 32/18 A3004 RMK A01 T03190175  RH  042%=      5-min Rain = 0
KDO2 111613Z 20009KT 32/18 A3004 RMK A01 T03200176  RH  042%=      5-min Rain = 0
KDO2 111614Z 20008KT 32/18 A3004 RMK A01 T03200177  RH  042%=      5-min Rain = 0
KDO2 111615Z 20009KT 32/18 A3004 RMK A01 T03210178  RH  043%=      5-min Rain = 0
KDO2 111616Z 21008KT 32/17 A3004 RMK A01 T03220171  RH  041%=      5-min Rain = 0
KDO2 111617Z 20008KT 32/18 A3004 RMK A01 T03220176  RH  042%=      5-min Rain = 0
KDO2 111618Z 18008KT 32/18 A3004 RMK A01 T03220175  RH  042%=      5-min Rain = 0
KDO2 111619Z 19007KT 32/17 A3004 RMK A01 T03220172  RH  041%=      5-min Rain = 0
KDO2 111620Z 18008KT 32/17 A3004 RMK A01 T03220174  RH  041%=      5-min Rain = 0
KDO2 111621Z 20005KT 32/17 A3004 RMK A01 T03220174  RH  041%=      5-min Rain = 0
KDO2 111622Z 19007KT 32/18 A3004 RMK A01 T03220177  RH  042%=      5-min Rain = 0
KDO2 111623Z 20008KT 32/17 A3004 RMK A01 T03230173  RH  041%=      5-min Rain = 0
KDO2 111624Z 21006KT 32/17 A3004 RMK A01 T03230173  RH  041%=      5-min Rain = 0
KDO2 111625Z 23005KT 32/18 A3004 RMK A01 T03220176  RH  042%=      5-min Rain = 0
KDO2 111626Z 22003KT 32/18 A3004 RMK A01 T03230177  RH  042%=      5-min Rain = 0
KDO2 111627Z 22005KT 33/18 A3004 RMK A01 T03250179  RH  042%=      5-min Rain = 0
KDO2 111628Z 22007KT 33/18 A3004 RMK A01 T03260177  RH  041%=      5-min Rain = 0
KDO2 111629Z 22008KT 33/17 A3004 RMK A01 T03270174  RH  040%=      5-min Rain = 0
KDO2 111630Z 22009KT 33/18 A3004 RMK A01 T03270178  RH  041%=      5-min Rain = 0
KDO2 111631Z 23008KT 33/18 A3004 RMK A01 T03270175  RH  040%=      5-min Rain = 0
KDO2 111632Z 22005KT 33/18 A3004 RMK A01 T03270177  RH  041%=      5-min Rain = 0
KDO2 111633Z 22004KT 33/17 A3004 RMK A01 T03270172  RH  040%=      5-min Rain = 0
KDO2 111634Z 19005KT 33/18 A3004 RMK A01 T03260176  RH  041%=      5-min Rain = 0
KDO2 111635Z 20007KT 33/18 A3004 RMK A01 T03280177  RH  041%=      5-min Rain = 0
KDO2 111636Z 18008KT 33/18 A3004 RMK A01 T03310179  RH  041%=      5-min Rain = 0
KDO2 111637Z 16008KT 33/18 A3004 RMK A01 T03310176  RH  040%=      5-min Rain = 0
KDO2 111638Z 20008KT 33/18 A3004 RMK A01 T03320175  RH  039%=      5-min Rain = 0
KDO2 111639Z 20008KT 33/17 A3004 RMK A01 T03310170  RH  038%=      5-min Rain = 0
KDO2 111640Z 22007KT 33/17 A3004 RMK A01 T03310169  RH  038%=      5-min Rain = 0
KDO2 111641Z 21007KT 33/17 A3004 RMK A01 T03310171  RH  039%=      5-min Rain = 0
KDO2 111642Z 20005KT 33/17 A3004 RMK A01 T03320167  RH  037%=      5-min Rain = 0
KDO2 111643Z 23003KT 33/17 A3004 RMK A01 T03310171  RH  038%=      5-min Rain = 0
KDO2 111644Z 23006KT 33/17 A3004 RMK A01 T03330170  RH  038%=      5-min Rain = 0
KDO2 111645Z 21007KT 33/18 A3004 RMK A01 T03340176  RH  039%=      5-min Rain = 0
KDO2 111646Z 19008KT 34/17 A3004 RMK A01 T03350171  RH  038%=      5-min Rain = 0
KDO2 111647Z 19006KT 34/17 A3004 RMK A01 T03350172  RH  038%=      5-min Rain = 0
KDO2 111648Z 16009KT 33/17 A3004 RMK A01 T03340174  RH  039%=      5-min Rain = 0
KDO2 111649Z 15008KT 34/17 A3004 RMK A01 T03350166  RH  036%=      5-min Rain = 0
KDO2 111650Z 16005KT 34/17 A3004 RMK A01 T03350168  RH  037%=      5-min Rain = 0
KDO2 111651Z 17003KT 34/17 A3003 RMK A01 T03350167  RH  037%=      5-min Rain = 0
KDO2 111652Z 20006KT 34/17 A3004 RMK A01 T03350171  RH  038%=      5-min Rain = 0
KDO2 111653Z 20005KT 34/17 A3004 RMK A01 T03360170  RH  037%=      5-min Rain = 0
KDO2 111654Z 20004KT 34/16 A3003 RMK A01 T03360162  RH  035%=      5-min Rain = 0
KDO2 111655Z 21004KT 33/16 A3003 RMK A01 T03340163  RH  036%=      5-min Rain = 0
KDO2 111656Z 21010KT 33/17 A3003 RMK A01 T03340166  RH  037%=      5-min Rain = 0
KDO2 111657Z 23009KT 33/17 A3003 RMK A01 T03340167  RH  037%=      5-min Rain = 0
KDO2 111658Z 23006KT 34/17 A3003 RMK A01 T03350166  RH  037%=      5-min Rain = 0
KDO2 111659Z 23006KT 34/17 A3003 RMK A01 T03350165  RH  036%=      5-min Rain = 0
KDO2 111700Z 22004KT 34/16 A3003 RMK A01 T03350161  RH  035%=      5-min Rain = 0
KDO2 111701Z 21005G10KT 34/17 A3003 RMK A01 T03360172  RH  038%=      5-min Rain = 0
KDO2 111702Z 16007KT 34/17 A3003 RMK A01 T03400170  RH  037%=      5-min Rain = 0
KDO2 111703Z 20008KT 34/17 A3003 RMK A01 T03400167  RH  036%=      5-min Rain = 0
KDO2 111704Z 20009KT 34/17 A3003 RMK A01 T03400168  RH  036%=      5-min Rain = 0
KDO2 111705Z 22007KT 34/17 A3003 RMK A01 T03400171  RH  037%=      5-min Rain = 0
KDO2 111706Z 21008KT 34/17 A3003 RMK A01 T03410165  RH  035%=      5-min Rain = 0
KDO2 111707Z 21005KT 34/17 A3003 RMK A01 T03400167  RH  036%=      5-min Rain = 0
KDO2 111708Z 19003KT 34/17 A3003 RMK A01 T03390165  RH  035%=      5-min Rain = 0
KDO2 111709Z 19007KT 34/17 A3003 RMK A01 T03400169  RH  036%=      5-min Rain = 0
KDO2 111710Z 20004KT 34/17 A3003 RMK A01 T03410165  RH  035%=      5-min Rain = 0
KDO2 111711Z 22007G12KT 34/16 A3003 RMK A01 T03400160  RH  034%=      5-min Rain = 0
KDO2 111712Z 20009KT 34/17 A3003 RMK A01 T03400167  RH  036%=      5-min Rain = 0
KDO2 111713Z 20010KT 34/16 A3003 RMK A01 T03410159  RH  034%=      5-min Rain = 0
KDO2 111714Z 21007KT 34/16 A3003 RMK A01 T03410160  RH  034%=      5-min Rain = 0
KDO2 111715Z 21005KT 34/15 A3003 RMK A01 T03410154  RH  033%=      5-min Rain = 0
KDO2 111716Z 17004KT 34/15 A3003 RMK A01 T03410151  RH  032%=      5-min Rain = 0
KDO2 111717Z 20009G15KT 34/16 A3002 RMK A01 T03430157  RH  033%=      5-min Rain = 0
KDO2 111718Z 20008KT 34/15 A3002 RMK A01 T03430154  RH  032%=      5-min Rain = 0
KDO2 111719Z 20008KT 34/15 A3002 RMK A01 T03420154  RH  033%=      5-min Rain = 0
KDO2 111720Z 14007KT 34/16 A3002 RMK A01 T03410161  RH  034%=      5-min Rain = 0
KDO2 111721Z 14007KT 34/16 A3002 RMK A01 T03420163  RH  034%=      5-min Rain = 0
KDO2 111722Z 15008KT 34/16 A3002 RMK A01 T03430164  RH  034%=      5-min Rain = 0
KDO2 111723Z 16004KT 34/16 A3002 RMK A01 T03440162  RH  034%=      5-min Rain = 0
KDO2 111724Z 14004KT 34/16 A3002 RMK A01 T03440162  RH  034%=      5-min Rain = 0
KDO2 111725Z 13007KT 35/16 A3002 RMK A01 T03460161  RH  033%=      5-min Rain = 0
KDO2 111726Z 13007KT 35/16 A3002 RMK A01 T03460163  RH  034%=      5-min Rain = 0
KDO2 111727Z 18006KT 35/17 A3002 RMK A01 T03480166  RH  034%=      5-min Rain = 0
KDO2 111728Z 15009KT 35/16 A3002 RMK A01 T03480162  RH  033%=      5-min Rain = 0
KDO2 111729Z 16009KT 35/16 A3002 RMK A01 T03480161  RH  033%=      5-min Rain = 0
KDO2 111730Z 16008KT 35/16 A3002 RMK A01 T03480161  RH  033%=      5-min Rain = 0
KDO2 111731Z 17010KT 35/16 A3002 RMK A01 T03470163  RH  034%=      5-min Rain = 0
KDO2 111732Z 17009KT 35/16 A3002 RMK A01 T03470162  RH  033%=      5-min Rain = 0
KDO2 111733Z 18006KT 35/16 A3002 RMK A01 T03460159  RH  033%=      5-min Rain = 0
KDO2 111734Z 15010G15KT 35/17 A3002 RMK A01 T03460169  RH  035%=      5-min Rain = 0
KDO2 111735Z 15010KT 35/17 A3002 RMK A01 T03460168  RH  035%=      5-min Rain = 0
KDO2 111736Z 15009KT 35/17 A3002 RMK A01 T03450167  RH  035%=      5-min Rain = 0
KDO2 111737Z 16008KT 34/16 A3001 RMK A01 T03440163  RH  034%=      5-min Rain = 0
KDO2 111738Z 15006KT 34/16 A3001 RMK A01 T03430164  RH  034%=      5-min Rain = 0
KDO2 111739Z 15006KT 35/17 A3001 RMK A01 T03450167  RH  035%=      5-min Rain = 0
KDO2 111740Z 17005KT 35/16 A3001 RMK A01 T03470162  RH  033%=      5-min Rain = 0
KDO2 111741Z 19005KT 35/16 A3001 RMK A01 T03480163  RH  033%=      5-min Rain = 0
KDO2 111742Z 14006KT 35/17 A3001 RMK A01 T03490166  RH  034%=      5-min Rain = 0
KDO2 111743Z 15004KT 35/16 A3001 RMK A01 T03500160  RH  032%=      5-min Rain = 0
KDO2 111744Z 20007KT 35/17 A3001 RMK A01 T03490167  RH  034%=      5-min Rain = 0
KDO2 111745Z 23006KT 35/16 A3001 RMK A01 T03490161  RH  033%=      5-min Rain = 0
KDO2 111746Z 22003KT 35/16 A3001 RMK A01 T03470155  RH  032%=      5-min Rain = 0
KDO2 111747Z 17003KT 35/17 A3001 RMK A01 T03460169  RH  035%=      5-min Rain = 0
KDO2 111748Z 15002KT 35/16 A3001 RMK A01 T03510164  RH  033%=      5-min Rain = 0
KDO2 111749Z 17003KT 35/16 A3001 RMK A01 T03520162  RH  032%=      5-min Rain = 0
KDO2 111750Z 15007KT 35/17 A3001 RMK A01 T03520165  RH  033%=      5-min Rain = 0
KDO2 111751Z 18005KT 35/16 A3001 RMK A01 T03500156  RH  031%=      5-min Rain = 0
KDO2 111752Z 21003KT 35/16 A3001 RMK A01 T03480158  RH  032%=      5-min Rain = 0
KDO2 111753Z 13006KT 35/16 A3001 RMK A01 T03490162  RH  033%=      5-min Rain = 0
KDO2 111754Z 13006KT 35/16 A3001 RMK A01 T03510162  RH  033%=      5-min Rain = 0
KDO2 111755Z 13006KT 35/16 A3001 RMK A01 T03510160  RH  032%=      5-min Rain = 0
KDO2 111756Z 13005KT 35/16 A3001 RMK A01 T03510161  RH  032%=      5-min Rain = 0
KDO2 111757Z 17006G11KT 35/16 A30 RMK A01 T03520158  RH  031%=      5-min Rain = 0
KDO2 111758Z 17009KT 35/16 A30 RMK A01 T03540162  RH  032%=      5-min Rain = 0
KDO2 111759Z 17009KT 36/17 A30 RMK A01 T03570169  RH  033%=      5-min Rain = 0
KDO2 111800Z 16011KT 36/16 A30 RMK A01 T03590161  RH  031%=      5-min Rain = 0
KDO2 111801Z 17007KT 36/16 A30 RMK A01 T03580158  RH  030%=      5-min Rain = 0
KDO2 111802Z 15006KT 36/16 A30 RMK A01 T03560157  RH  031%=      5-min Rain = 0
KDO2 111803Z 15007KT 36/15 A30 RMK A01 T03560154  RH  030%=      5-min Rain = 0
KDO2 111804Z 14008KT 36/16 A30 RMK A01 T03550155  RH  031%=      5-min Rain = 0
KDO2 111805Z 13006KT 36/16 A30 RMK A01 T03550155  RH  030%=      5-min Rain = 0
KDO2 111806Z 14006KT 35/16 A30 RMK A01 T03540156  RH  031%=      5-min Rain = 0
KDO2 111807Z 11005KT 35/15 A30 RMK A01 T03540154  RH  030%=      5-min Rain = 0
KDO2 111808Z 15005KT 36/16 A30 RMK A01 T03550158  RH  031%=      5-min Rain = 0
KDO2 111809Z 18009KT 36/16 A30 RMK A01 T03570158  RH  031%=      5-min Rain = 0
KDO2 111810Z 18009KT 36/15 A30 RMK A01 T03580152  RH  029%=      5-min Rain = 0
KDO2 111811Z 19010KT 36/15 A30 RMK A01 T03580150  RH  029%=      5-min Rain = 0
KDO2 111812Z 19010KT 36/16 A30 RMK A01 T03570155  RH  030%=      5-min Rain = 0
KDO2 111813Z 19009KT 36/15 A30 RMK A01 T03570152  RH  029%=      5-min Rain = 0
KDO2 111814Z 17008KT 36/15 A30 RMK A01 T03570150  RH  029%=      5-min Rain = 0
KDO2 111815Z 17008KT 36/15 A30 RMK A01 T03570152  RH  030%=      5-min Rain = 0
KDO2 111816Z 17007KT 36/15 A30 RMK A01 T03570152  RH  030%=      5-min Rain = 0
KDO2 111817Z 15008KT 36/15 A30 RMK A01 T03570153  RH  030%=      5-min Rain = 0
KDO2 111818Z 14004KT 36/15 A2999 RMK A01 T03570148  RH  029%=      5-min Rain = 0
KDO2 111819Z 12007KT 36/15 A2999 RMK A01 T03560154  RH  030%=      5-min Rain = 0
KDO2 111820Z 15007KT 36/16 A2999 RMK A01 T03590158  RH  030%=      5-min Rain = 0
KDO2 111821Z 15007KT 36/16 A2999 RMK A01 T03600157  RH  030%=      5-min Rain = 0
KDO2 111822Z 16007KT 36/16 A2999 RMK A01 T03600158  RH  030%=      5-min Rain = 0
KDO2 111823Z 16007KT 36/16 A2999 RMK A01 T03620161  RH  030%=      5-min Rain = 0
KDO2 111824Z 15006KT 36/15 A2999 RMK A01 T03630153  RH  029%=      5-min Rain = 0
KDO2 111825Z 17008KT 36/16 A2999 RMK A01 T03630156  RH  029%=      5-min Rain = 0
KDO2 111826Z 14009KT 36/16 A2999 RMK A01 T03630155  RH  029%=      5-min Rain = 0
KDO2 111827Z 15010KT 36/15 A2999 RMK A01 T03630153  RH  029%=      5-min Rain = 0
KDO2 111828Z 16012KT 36/15 A2999 RMK A01 T03640146  RH  027%=      5-min Rain = 0
KDO2 111829Z 16011KT 36/15 A2999 RMK A01 T03640149  RH  028%=      5-min Rain = 0
KDO2 111830Z 15011KT 36/15 A2999 RMK A01 T03640147  RH  027%=      5-min Rain = 0
KDO2 111831Z 16010KT 36/15 A2999 RMK A01 T03640152  RH  029%=      5-min Rain = 0
KDO2 111832Z 16009KT 36/15 A2999 RMK A01 T03640154  RH  029%=      5-min Rain = 0
KDO2 111833Z 17010KT 37/15 A2999 RMK A01 T03650148  RH  028%=      5-min Rain = 0
KDO2 111834Z 18009KT 36/15 A2999 RMK A01 T03640148  RH  028%=      5-min Rain = 0
KDO2 111835Z 19007KT 36/15 A2999 RMK A01 T03640146  RH  027%=      5-min Rain = 0
KDO2 111836Z 19009KT 36/15 A2998 RMK A01 T03620146  RH  028%=      5-min Rain = 0
KDO2 111837Z 20007KT 36/15 A2998 RMK A01 T03630149  RH  028%=      5-min Rain = 0
KDO2 111838Z 17011KT 37/15 A2998 RMK A01 T03650146  RH  027%=      5-min Rain = 0
KDO2 111839Z 15012KT 37/14 A2998 RMK A01 T03650144  RH  027%=      5-min Rain = 0
KDO2 111840Z 17009KT 37/14 A2998 RMK A01 T03650144  RH  027%=      5-min Rain = 0
KDO2 111841Z 18009KT 37/14 A2998 RMK A01 T03660143  RH  027%=      5-min Rain = 0
KDO2 111842Z 17010KT 37/15 A2998 RMK A01 T03670150  RH  028%=      5-min Rain = 0
KDO2 111843Z 17009KT 37/15 A2998 RMK A01 T03680145  RH  027%=      5-min Rain = 0
KDO2 111844Z 17007KT 37/14 A2998 RMK A01 T03660144  RH  027%=      5-min Rain = 0
KDO2 111845Z 18007KT 37/15 A2998 RMK A01 T03650146  RH  027%=      5-min Rain = 0
KDO2 111846Z 18007KT 37/14 A2998 RMK A01 T03650141  RH  026%=      5-min Rain = 0
KDO2 111847Z 18004KT 37/14 A2998 RMK A01 T03650143  RH  027%=      5-min Rain = 0
KDO2 111848Z 18007G12KT 37/15 A2998 RMK A01 T03650147  RH  027%=      5-min Rain = 0
KDO2 111849Z 18012KT 37/14 A2998 RMK A01 T03660142  RH  026%=      5-min Rain = 0
KDO2 111850Z 18011KT 37/14 A2998 RMK A01 T03670137  RH  025%=      5-min Rain = 0
KDO2 111851Z 16010KT 37/15 A2998 RMK A01 T03670150  RH  027%=      5-min Rain = 0
KDO2 111852Z 17008KT 37/14 A2998 RMK A01 T03700140  RH  025%=      5-min Rain = 0
KDO2 111853Z 19008KT 37/14 A2998 RMK A01 T03680143  RH  026%=      5-min Rain = 0
KDO2 111854Z 19008KT 37/15 A2998 RMK A01 T03670150  RH  028%=      5-min Rain = 0
KDO2 111855Z 20008KT 37/14 A2998 RMK A01 T03680141  RH  026%=      5-min Rain = 0
KDO2 111856Z 23003KT 37/14 A2997 RMK A01 T03670135  RH  025%=      5-min Rain = 0
KDO2 111857Z 22002KT 37/13 A2997 RMK A01 T03650134  RH  025%=      5-min Rain = 0
KDO2 111858Z 20008G16KT 37/15 A2997 RMK A01 T03660148  RH  027%=      5-min Rain = 0
KDO2 111859Z 19008KT 37/15 A2997 RMK A01 T03700150  RH  027%=      5-min Rain = 0
KDO2 111900Z 21008KT 37/15 A2997 RMK A01 T03700147  RH  027%=      5-min Rain = 0
KDO2 111901Z 20007KT 37/15 A2997 RMK A01 T03700148  RH  027%=      5-min Rain = 0
KDO2 111902Z 19007KT 37/15 A2997 RMK A01 T03690152  RH  028%=      5-min Rain = 0
KDO2 111903Z 13009KT 37/15 A2997 RMK A01 T03700152  RH  028%=      5-min Rain = 0
KDO2 111904Z 13008KT 37/15 A2997 RMK A01 T03710145  RH  026%=      5-min Rain = 0
KDO2 111905Z 13007KT 37/15 A2997 RMK A01 T03700147  RH  027%=      5-min Rain = 0
KDO2 111906Z 12006KT 37/15 A2996 RMK A01 T03690145  RH  027%=      5-min Rain = 0
KDO2 111907Z 14008KT 37/15 A2996 RMK A01 T03700148  RH  027%=      5-min Rain = 0
KDO2 111908Z 13010KT 37/15 A2996 RMK A01 T03720146  RH  026%=      5-min Rain = 0
KDO2 111909Z 13009KT 37/15 A2996 RMK A01 T03740152  RH  027%=      5-min Rain = 0
KDO2 111910Z 13007KT 37/14 A2996 RMK A01 T03740142  RH  025%=      5-min Rain = 0
KDO2 111911Z 14008KT 37/15 A2996 RMK A01 T03720145  RH  026%=      5-min Rain = 0
KDO2 111912Z 14010KT 37/15 A2996 RMK A01 T03720149  RH  027%=      5-min Rain = 0
KDO2 111913Z 13012KT 37/15 A2996 RMK A01 T03740145  RH  026%=      5-min Rain = 0
KDO2 111914Z 16013KT 38/14 A2996 RMK A01 T03760143  RH  025%=      5-min Rain = 0
KDO2 111915Z 17010KT 37/14 A2996 RMK A01 T03740140  RH  025%=      5-min Rain = 0
KDO2 111916Z 15009KT 37/15 A2996 RMK A01 T03730146  RH  026%=      5-min Rain = 0
KDO2 111917Z 15013KT 38/14 A2996 RMK A01 T03750144  RH  025%=      5-min Rain = 0
KDO2 111918Z 15012KT 38/14 A2996 RMK A01 T03760138  RH  024%=      5-min Rain = 0
KDO2 111919Z 17012KT 38/15 A2996 RMK A01 T03760145  RH  025%=      5-min Rain = 0
KDO2 111920Z 18011KT 37/14 A2996 RMK A01 T03740143  RH  025%=      5-min Rain = 0
KDO2 111921Z 20007KT 37/15 A2996 RMK A01 T03720145  RH  026%=      5-min Rain = 0
KDO2 111922Z 14008KT 37/14 A2996 RMK A01 T03730143  RH  026%=      5-min Rain = 0
KDO2 111923Z 15009KT 37/15 A2996 RMK A01 T03730145  RH  026%=      5-min Rain = 0
KDO2 111924Z 17010KT 37/15 A2995 RMK A01 T03730150  RH  027%=      5-min Rain = 0
KDO2 111925Z 17011KT 37/14 A2995 RMK A01 T03740142  RH  025%=      5-min Rain = 0
KDO2 111926Z 17008KT 37/14 A2995 RMK A01 T03740142  RH  025%=      5-min Rain = 0
KDO2 111927Z 17008KT 37/14 A2995 RMK A01 T03740137  RH  024%=      5-min Rain = 0
KDO2 111928Z 18006KT 37/14 A2995 RMK A01 T03740137  RH  024%=      5-min Rain = 0
KDO2 111929Z 18006G11KT 37/14 A2995 RMK A01 T03730140  RH  025%=      5-min Rain = 0
KDO2 111930Z 16010KT 37/14 A2995 RMK A01 T03730139  RH  025%=      5-min Rain = 0
KDO2 111931Z 18009KT 37/14 A2995 RMK A01 T03730138  RH  025%=      5-min Rain = 0
KDO2 111932Z 16006KT 37/14 A2995 RMK A01 T03730136  RH  024%=      5-min Rain = 0
KDO2 111933Z 15005KT 37/14 A2995 RMK A01 T03720136  RH  025%=      5-min Rain = 0
KDO2 111934Z 16011KT 37/15 A2995 RMK A01 T03730146  RH  026%=      5-min Rain = 0
KDO2 111935Z 17014KT 38/15 A2995 RMK A01 T03770145  RH  025%=      5-min Rain = 0
KDO2 111936Z 17012KT 38/14 A2995 RMK A01 T03770138  RH  024%=      5-min Rain = 0
KDO2 111937Z 18011KT 38/14 A2995 RMK A01 T03760136  RH  024%=      5-min Rain = 0
KDO2 111938Z 16010KT 37/14 A2995 RMK A01 T03740136  RH  024%=      5-min Rain = 0
KDO2 111939Z 18009KT 37/14 A2995 RMK A01 T03740140  RH  025%=      5-min Rain = 0
KDO2 111940Z 18009KT 38/14 A2995 RMK A01 T03770140  RH  025%=      5-min Rain = 0
KDO2 111941Z 17006KT 38/14 A2995 RMK A01 T03770136  RH  024%=      5-min Rain = 0
KDO2 111942Z 20005KT 38/14 A2995 RMK A01 T03770143  RH  025%=      5-min Rain = 0
KDO2 111943Z 16010KT 38/14 A2995 RMK A01 T03780141  RH  024%=      5-min Rain = 0
KDO2 111944Z 16012KT 38/14 A2995 RMK A01 T03780136  RH  024%=      5-min Rain = 0
KDO2 111945Z 16009KT 38/14 A2995 RMK A01 T03770138  RH  024%=      5-min Rain = 0
KDO2 111946Z 16010KT 38/14 A2995 RMK A01 T03770139  RH  024%=      5-min Rain = 0
KDO2 111947Z 14011KT 38/14 A2994 RMK A01 T03760136  RH  024%=      5-min Rain = 0
KDO2 111948Z 14006KT 38/13 A2994 RMK A01 T03760129  RH  023%=      5-min Rain = 0
KDO2 111949Z 13007KT 38/13 A2994 RMK A01 T03750132  RH  024%=      5-min Rain = 0
KDO2 111950Z 15008KT 38/14 A2994 RMK A01 T03760140  RH  024%=      5-min Rain = 0
KDO2 111951Z 15010KT 38/14 A2994 RMK A01 T03790144  RH  025%=      5-min Rain = 0
KDO2 111952Z 16012KT 38/14 A2994 RMK A01 T03820142  RH  024%=      5-min Rain = 0
KDO2 111953Z 15011KT 38/14 A2994 RMK A01 T03820142  RH  024%=      5-min Rain = 0
KDO2 111954Z 14007G12KT 38/14 A2994 RMK A01 T03800135  RH  023%=      5-min Rain = 0
KDO2 111955Z 15004G10KT 38/14 A2994 RMK A01 T03780136  RH  024%=      5-min Rain = 0
KDO2 111956Z 16007KT 38/14 A2994 RMK A01 T03780137  RH  024%=      5-min Rain = 0
KDO2 111957Z 16009KT 38/14 A2994 RMK A01 T03790138  RH  024%=      5-min Rain = 0
KDO2 111958Z 15011KT 38/14 A2994 RMK A01 T03800137  RH  024%=      5-min Rain = 0
KDO2 111959Z 17009KT 38/15 A2994 RMK A01 T03790145  RH  025%=      5-min Rain = 0
KDO2 112000Z 18007KT 38/14 A2994 RMK A01 T03790140  RH  024%=      5-min Rain = 0
KDO2 112001Z 19006KT 38/14 A2994 RMK A01 T03790141  RH  024%=      5-min Rain = 0
KDO2 112002Z 18009KT 38/14 A2993 RMK A01 T03800142  RH  024%=      5-min Rain = 0
KDO2 112003Z 17010KT 38/14 A2993 RMK A01 T03820140  RH  024%=      5-min Rain = 0
KDO2 112004Z 17010KT 38/14 A2994 RMK A01 T03840141  RH  024%=      5-min Rain = 0
KDO2 112005Z 17012KT 38/14 A2993 RMK A01 T03840139  RH  024%=      5-min Rain = 0
KDO2 112006Z 17008KT 38/13 A2993 RMK A01 T03830131  RH  022%=      5-min Rain = 0
KDO2 112007Z 18010KT 38/14 A2993 RMK A01 T03810136  RH  023%=      5-min Rain = 0
KDO2 112008Z 18011KT 38/13 A2993 RMK A01 T03810134  RH  023%=      5-min Rain = 0
KDO2 112009Z 18012KT 38/14 A2993 RMK A01 T03810139  RH  024%=      5-min Rain = 0
KDO2 112010Z 19011KT 38/14 A2993 RMK A01 T03810135  RH  023%=      5-min Rain = 0
KDO2 112011Z 19008KT 38/14 A2993 RMK A01 T03800139  RH  024%=      5-min Rain = 0
KDO2 112012Z 17006KT 38/14 A2993 RMK A01 T03810139  RH  024%=      5-min Rain = 0
KDO2 112013Z 19009G14KT 38/14 A2993 RMK A01 T03830142  RH  024%=      5-min Rain = 0
KDO2 112014Z 17008G13KT 39/14 A2993 RMK A01 T03850137  RH  023%=      5-min Rain = 0
KDO2 112015Z 17004KT 39/14 A2993 RMK A01 T03850138  RH  023%=      5-min Rain = 0
KDO2 112016Z 14005KT 39/13 A2993 RMK A01 T03850134  RH  023%=      5-min Rain = 0
KDO2 112017Z 13009KT 39/14 A2993 RMK A01 T03850139  RH  023%=      5-min Rain = 0
KDO2 112018Z 13008KT 38/13 A2993 RMK A01 T03840126  RH  022%=      5-min Rain = 0
KDO2 112019Z 17008KT 38/14 A2993 RMK A01 T03800135  RH  023%=      5-min Rain = 0
KDO2 112020Z 18008KT 38/14 A2993 RMK A01 T03800138  RH  024%=      5-min Rain = 0
KDO2 112021Z 18007KT 38/14 A2993 RMK A01 T03810144  RH  025%=      5-min Rain = 0
KDO2 112022Z 17007KT 38/14 A2993 RMK A01 T03830140  RH  024%=      5-min Rain = 0
KDO2 112023Z 13009KT 38/14 A2992 RMK A01 T03830144  RH  024%=      5-min Rain = 0
KDO2 112024Z 14010KT 39/14 A2992 RMK A01 T03850139  RH  023%=      5-min Rain = 0
KDO2 112025Z 13009KT 39/14 A2992 RMK A01 T03860144  RH  024%=      5-min Rain = 0
KDO2 112026Z 12013KT 39/14 A2992 RMK A01 T03860136  RH  023%=      5-min Rain = 0
KDO2 112027Z 13012KT 39/13 A2992 RMK A01 T03850131  RH  022%=      5-min Rain = 0
KDO2 112028Z 13007KT 38/13 A2992 RMK A01 T03820128  RH  022%=      5-min Rain = 0
KDO2 112029Z 14010KT 38/13 A2992 RMK A01 T03810134  RH  023%=      5-min Rain = 0
KDO2 112030Z 13011KT 38/14 A2992 RMK A01 T03820140  RH  024%=      5-min Rain = 0
KDO2 112031Z 13010G15KT 38/14 A2992 RMK A01 T03820141  RH  024%=      5-min Rain = 0
KDO2 112032Z 15010KT 38/14 A2992 RMK A01 T03830137  RH  023%=      5-min Rain = 0
KDO2 112033Z 17010KT 38/15 A2992 RMK A01 T03840145  RH  024%=      5-min Rain = 0
KDO2 112034Z 17010KT 39/14 A2992 RMK A01 T03850143  RH  024%=      5-min Rain = 0
KDO2 112035Z 15011KT 39/14 A2992 RMK A01 T03860138  RH  023%=      5-min Rain = 0
KDO2 112036Z 16014KT 39/13 A2992 RMK A01 T03860133  RH  022%=      5-min Rain = 0
KDO2 112037Z 16012KT 39/13 A2992 RMK A01 T03860131  RH  022%=      5-min Rain = 0
KDO2 112038Z 17009KT 38/13 A2992 RMK A01 T03840127  RH  022%=      5-min Rain = 0
KDO2 112039Z 14011KT 38/14 A2992 RMK A01 T03830137  RH  023%=      5-min Rain = 0
KDO2 112040Z 13014KT 38/13 A2992 RMK A01 T03830134  RH  023%=      5-min Rain = 0
KDO2 112041Z 12011KT 38/13 A2992 RMK A01 T03830130  RH  022%=      5-min Rain = 0
KDO2 112042Z 13009KT 38/14 A2992 RMK A01 T03820135  RH  023%=      5-min Rain = 0
KDO2 112043Z 15007KT 38/14 A2992 RMK A01 T03820135  RH  023%=      5-min Rain = 0
KDO2 112044Z 16008KT 38/14 A2992 RMK A01 T03820136  RH  023%=      5-min Rain = 0
KDO2 112045Z 16007KT 38/14 A2992 RMK A01 T03820138  RH  024%=      5-min Rain = 0
KDO2 112046Z 16007KT 38/13 A2992 RMK A01 T03830132  RH  022%=      5-min Rain = 0
KDO2 112047Z 17005KT 38/14 A2992 RMK A01 T03840138  RH  023%=      5-min Rain = 0
KDO2 112048Z 15007KT 39/14 A2992 RMK A01 T03850138  RH  023%=      5-min Rain = 0
KDO2 112049Z 16009G14KT 39/14 A2992 RMK A01 T03860143  RH  024%=      5-min Rain = 0
KDO2 112050Z 17013KT 39/14 A2992 RMK A01 T03870137  RH  023%=      5-min Rain = 0
KDO2 112051Z 17011KT 39/14 A2992 RMK A01 T03870137  RH  023%=      5-min Rain = 0
KDO2 112052Z 16012KT 39/14 A2992 RMK A01 T03860137  RH  023%=      5-min Rain = 0
KDO2 112053Z 15009KT 39/14 A2992 RMK A01 T03860138  RH  023%=      5-min Rain = 0
KDO2 112054Z 15013KT 39/14 A2992 RMK A01 T03850136  RH  023%=      5-min Rain = 0
KDO2 112055Z 13010KT 39/14 A2992 RMK A01 T03850137  RH  023%=      5-min Rain = 0
KDO2 112056Z 12007G12KT 39/14 A2991 RMK A01 T03850137  RH  023%=      5-min Rain = 0
KDO2 112057Z 13011KT 39/13 A2991 RMK A01 T03850134  RH  023%=      5-min Rain = 0
KDO2 112058Z 13013KT 38/14 A2991 RMK A01 T03840141  RH  024%=      5-min Rain = 0
KDO2 112059Z 14012KT 38/14 A2991 RMK A01 T03840138  RH  023%=      5-min Rain = 0
KDO2 112100Z 15011KT 38/14 A2991 RMK A01 T03830138  RH  023%=      5-min Rain = 0
KDO2 112101Z 14011KT 38/15 A2991 RMK A01 T03830145  RH  024%=      5-min Rain = 0
KDO2 112102Z 13015KT 39/14 A2991 RMK A01 T03850141  RH  024%=      5-min Rain = 0
KDO2 112103Z 13015KT 38/14 A2991 RMK A01 T03840140  RH  024%=      5-min Rain = 0
KDO2 112104Z 13012KT 38/14 A2991 RMK A01 T03830143  RH  024%=      5-min Rain = 0
KDO2 112105Z 13008KT 38/13 A2991 RMK A01 T03820133  RH  023%=      5-min Rain = 0
KDO2 112106Z 16013KT 38/14 A2991 RMK A01 T03800143  RH  024%=      5-min Rain = 0
KDO2 112107Z 16010KT 38/14 A2991 RMK A01 T03810140  RH  024%=      5-min Rain = 0
KDO2 112108Z 15005KT 38/14 A2991 RMK A01 T03810137  RH  024%=      5-min Rain = 0
KDO2 112109Z 12009KT 38/14 A2991 RMK A01 T03810143  RH  024%=      5-min Rain = 0
KDO2 112110Z 12008KT 38/14 A2991 RMK A01 T03820144  RH  024%=      5-min Rain = 0
KDO2 112111Z 16009KT 38/14 A2991 RMK A01 T03830144  RH  024%=      5-min Rain = 0
KDO2 112112Z 15011KT 38/15 A2991 RMK A01 T03840146  RH  025%=      5-min Rain = 0
KDO2 112113Z 13009KT 39/14 A2991 RMK A01 T03850138  RH  023%=      5-min Rain = 0
KDO2 112114Z 13011KT 38/13 A2991 RMK A01 T03830134  RH  023%=      5-min Rain = 0
KDO2 112115Z 12011KT 38/13 A2991 RMK A01 T03830133  RH  023%=      5-min Rain = 0
KDO2 112116Z 13011KT 38/13 A2991 RMK A01 T03830134  RH  023%=      5-min Rain = 0
KDO2 112117Z 15011KT 38/14 A2991 RMK A01 T03830140  RH  024%=      5-min Rain = 0
KDO2 112118Z 17007KT 39/14 A2991 RMK A01 T03850141  RH  024%=      5-min Rain = 0
KDO2 112119Z 18012KT 39/14 A2991 RMK A01 T03880144  RH  024%=      5-min Rain = 0
KDO2 112120Z 19011KT 39/14 A2991 RMK A01 T03880138  RH  023%=      5-min Rain = 0
KDO2 112121Z 17008KT 39/14 A2991 RMK A01 T03860140  RH  023%=      5-min Rain = 0
KDO2 112122Z 19010KT 39/14 A2991 RMK A01 T03860137  RH  023%=      5-min Rain = 0
KDO2 112123Z 19008KT 39/14 A2991 RMK A01 T03860142  RH  024%=      5-min Rain = 0
KDO2 112124Z 16010G16KT 39/14 A2991 RMK A01 T03850143  RH  024%=      5-min Rain = 0
KDO2 112125Z 18012G19KT 39/14 A299 RMK A01 T03860140  RH  023%=      5-min Rain = 0
KDO2 112126Z 19013KT 39/15 A299 RMK A01 T03860145  RH  024%=      5-min Rain = 0
KDO2 112127Z 19013KT 39/14 A299 RMK A01 T03860140  RH  023%=      5-min Rain = 0
KDO2 112128Z 19009KT 39/14 A299 RMK A01 T03850139  RH  023%=      5-min Rain = 0
KDO2 112129Z 20011KT 38/14 A299 RMK A01 T03830140  RH  024%=      5-min Rain = 0
KDO2 112130Z 20009KT 38/14 A299 RMK A01 T03830137  RH  023%=      5-min Rain = 0
KDO2 112131Z 20010KT 38/14 A299 RMK A01 T03830144  RH  024%=      5-min Rain = 0
KDO2 112132Z 20011KT 39/15 A299 RMK A01 T03850145  RH  024%=      5-min Rain = 0
KDO2 112133Z 17010G15KT 39/14 A299 RMK A01 T03860144  RH  024%=      5-min Rain = 0
KDO2 112134Z 15014KT 39/15 A299 RMK A01 T03860146  RH  024%=      5-min Rain = 0
KDO2 112135Z 14012KT 39/15 A299 RMK A01 T03860151  RH  025%=      5-min Rain = 0
KDO2 112136Z 13010KT 39/15 A299 RMK A01 T03860148  RH  025%=      5-min Rain = 0
KDO2 112137Z 16009KT 39/15 A299 RMK A01 T03860149  RH  025%=      5-min Rain = 0
KDO2 112138Z 17007KT 39/15 A299 RMK A01 T03860148  RH  025%=      5-min Rain = 0
KDO2 112139Z 17009KT 39/15 A299 RMK A01 T03860152  RH  025%=      5-min Rain = 0
KDO2 112140Z 18007KT 39/15 A299 RMK A01 T03880154  RH  025%=      5-min Rain = 0
KDO2 112141Z 17014KT 39/15 A299 RMK A01 T03900149  RH  024%=      5-min Rain = 0
KDO2 112142Z 18012KT 39/15 A299 RMK A01 T03880145  RH  024%=      5-min Rain = 0
KDO2 112143Z 17009KT 39/15 A299 RMK A01 T03860149  RH  025%=      5-min Rain = 0
KDO2 112144Z 15007KT 39/15 A299 RMK A01 T03860149  RH  025%=      5-min Rain = 0
KDO2 112145Z 16006KT 39/15 A299 RMK A01 T03870148  RH  024%=      5-min Rain = 0
KDO2 112146Z 16004KT 39/15 A299 RMK A01 T03870147  RH  024%=      5-min Rain = 0
KDO2 112147Z 18010KT 39/15 A299 RMK A01 T03860150  RH  025%=      5-min Rain = 0
KDO2 112148Z 16012KT 39/15 A299 RMK A01 T03870149  RH  025%=      5-min Rain = 0
KDO2 112149Z 15011KT 39/15 A299 RMK A01 T03870148  RH  024%=      5-min Rain = 0
KDO2 112150Z 15013KT 39/15 A299 RMK A01 T03860150  RH  025%=      5-min Rain = 0
KDO2 112151Z 16012KT 39/15 A299 RMK A01 T03850145  RH  024%=      5-min Rain = 0
KDO2 112152Z 16010KT 39/14 A299 RMK A01 T03850143  RH  024%=      5-min Rain = 0
KDO2 112153Z 16010KT 39/14 A299 RMK A01 T03860141  RH  024%=      5-min Rain = 0
KDO2 112154Z 18010KT 39/14 A299 RMK A01 T03860141  RH  024%=      5-min Rain = 0
KDO2 112155Z 17010KT 39/15 A299 RMK A01 T03860150  RH  025%=      5-min Rain = 0
KDO2 112156Z 15009KT 39/15 A299 RMK A01 T03870150  RH  025%=      5-min Rain = 0
KDO2 112157Z 15011KT 39/15 A299 RMK A01 T03870151  RH  025%=      5-min Rain = 0
KDO2 112158Z 16009KT 39/15 A299 RMK A01 T03870145  RH  024%=      5-min Rain = 0
KDO2 112159Z 16008KT 39/14 A299 RMK A01 T03850144  RH  024%=      5-min Rain = 0
KDO2 112200Z 16006KT 39/14 A299 RMK A01 T03850140  RH  023%=      5-min Rain = 0
KDO2 112201Z 15008KT 39/14 A299 RMK A01 T03850141  RH  024%=      5-min Rain = 0
KDO2 112202Z 17013KT 39/15 A299 RMK A01 T03850147  RH  025%=      5-min Rain = 0
KDO2 112203Z 16014KT 39/15 A299 RMK A01 T03850147  RH  025%=      5-min Rain = 0
KDO2 112204Z 15010KT 39/15 A299 RMK A01 T03850145  RH  024%=      5-min Rain = 0
KDO2 112205Z 14011KT 39/15 A299 RMK A01 T03850154  RH  026%=      5-min Rain = 0
KDO2 112206Z 15010KT 39/15 A299 RMK A01 T03860148  RH  025%=      5-min Rain = 0
KDO2 112207Z 16008KT 39/15 A299 RMK A01 T03860148  RH  025%=      5-min Rain = 0
KDO2 112208Z 15006KT 38/15 A299 RMK A01 T03840150  RH  025%=      5-min Rain = 0
KDO2 112209Z 16007KT 39/15 A299 RMK A01 T03850150  RH  025%=      5-min Rain = 0
KDO2 112210Z 16007KT 39/15 A299 RMK A01 T03850149  RH  025%=      5-min Rain = 0
KDO2 112211Z 15006KT 39/14 A2989 RMK A01 T03860140  RH  023%=      5-min Rain = 0
KDO2 112212Z 17006KT 39/15 A2989 RMK A01 T03850147  RH  025%=      5-min Rain = 0
KDO2 112213Z 18008KT 39/15 A2989 RMK A01 T03850151  RH  025%=      5-min Rain = 0
KDO2 112214Z 19011KT 39/15 A2989 RMK A01 T03860147  RH  024%=      5-min Rain = 0
KDO2 112215Z 19009KT 39/14 A2989 RMK A01 T03850143  RH  024%=      5-min Rain = 0
KDO2 112216Z 19008KT 38/14 A2989 RMK A01 T03840142  RH  024%=      5-min Rain = 0
KDO2 112217Z 18015KT 38/14 A2989 RMK A01 T03840144  RH  024%=      5-min Rain = 0
KDO2 112218Z 17016KT 38/14 A2989 RMK A01 T03840140  RH  024%=      5-min Rain = 0
KDO2 112219Z 17015KT 38/14 A2989 RMK A01 T03840138  RH  023%=      5-min Rain = 0
KDO2 112220Z 17013KT 38/14 A2989 RMK A01 T03840139  RH  023%=      5-min Rain = 0
KDO2 112221Z 18012KT 38/15 A2989 RMK A01 T03840145  RH  024%=      5-min Rain = 0
KDO2 112222Z 18008KT 38/14 A2989 RMK A01 T03840141  RH  024%=      5-min Rain = 0
KDO2 112223Z 17011KT 39/15 A2989 RMK A01 T03850145  RH  024%=      5-min Rain = 0
KDO2 112224Z 17013KT 39/14 A2989 RMK A01 T03850143  RH  024%=      5-min Rain = 0
KDO2 112225Z 18010KT 39/14 A2989 RMK A01 T03850140  RH  023%=      5-min Rain = 0
KDO2 112226Z 17009KT 38/14 A2989 RMK A01 T03840139  RH  023%=      5-min Rain = 0
KDO2 112227Z 18011KT 38/14 A2989 RMK A01 T03840144  RH  024%=      5-min Rain = 0
KDO2 112228Z 18009KT 38/15 A2989 RMK A01 T03840145  RH  024%=      5-min Rain = 0
KDO2 112229Z 17008KT 38/15 A2989 RMK A01 T03840148  RH  025%=      5-min Rain = 0
KDO2 112230Z 17011KT 39/15 A2989 RMK A01 T03850147  RH  025%=      5-min Rain = 0
KDO2 112231Z 18012KT 39/14 A2989 RMK A01 T03850142  RH  024%=      5-min Rain = 0
KDO2 112232Z 17011G16KT 39/14 A2989 RMK A01 T03850144  RH  024%=      5-min Rain = 0
KDO2 112233Z 15015KT 39/14 A2989 RMK A01 T03850138  RH  023%=      5-min Rain = 0
KDO2 112234Z 14012KT 38/14 A2989 RMK A01 T03840136  RH  023%=      5-min Rain = 0
KDO2 112235Z 13012KT 38/14 A2989 RMK A01 T03840140  RH  024%=      5-min Rain = 0
KDO2 112236Z 13008KT 38/14 A2989 RMK A01 T03840140  RH  024%=      5-min Rain = 0
KDO2 112237Z 14009G14KT 38/14 A2989 RMK A01 T03840143  RH  024%=      5-min Rain = 0
KDO2 112238Z 14012KT 38/15 A2989 RMK A01 T03840145  RH  024%=      5-min Rain = 0
KDO2 112239Z 13010KT 38/15 A2989 RMK A01 T03840145  RH  024%=      5-min Rain = 0
KDO2 112240Z 14009KT 38/15 A2989 RMK A01 T03830148  RH  025%=      5-min Rain = 0
KDO2 112241Z 13006KT 38/14 A2989 RMK A01 T03830143  RH  024%=      5-min Rain = 0
KDO2 112242Z 14006G11KT 38/15 A2989 RMK A01 T03830152  RH  026%=      5-min Rain = 0
KDO2 112243Z 15010KT 38/16 A2989 RMK A01 T03830155  RH  026%=      5-min Rain = 0
KDO2 112244Z 15011KT 38/16 A2989 RMK A01 T03840155  RH  026%=      5-min Rain = 0
KDO2 112245Z 15012KT 38/16 A2989 RMK A01 T03840155  RH  026%=      5-min Rain = 0
KDO2 112246Z 17012KT 38/15 A2989 RMK A01 T03830153  RH  026%=      5-min Rain = 0
KDO2 112247Z 15008KT 38/15 A2989 RMK A01 T03830149  RH  025%=      5-min Rain = 0
KDO2 112248Z 16009KT 38/15 A2989 RMK A01 T03820147  RH  025%=      5-min Rain = 0
KDO2 112249Z 17007KT 38/15 A2989 RMK A01 T03820151  RH  026%=      5-min Rain = 0
KDO2 112250Z 19005KT 38/15 A2989 RMK A01 T03820153  RH  026%=      5-min Rain = 0
KDO2 112251Z 19005KT 38/15 A2989 RMK A01 T03830154  RH  026%=      5-min Rain = 0
KDO2 112252Z 17009KT 38/15 A2989 RMK A01 T03840153  RH  026%=      5-min Rain = 0
KDO2 112253Z 17011KT 38/15 A2989 RMK A01 T03840149  RH  025%=      5-min Rain = 0
KDO2 112254Z 16012KT 39/15 A2989 RMK A01 T03850151  RH  025%=      5-min Rain = 0
KDO2 112255Z 17010KT 38/15 A2989 RMK A01 T03840151  RH  025%=      5-min Rain = 0
KDO2 112256Z 17008KT 38/16 A2989 RMK A01 T03840156  RH  026%=      5-min Rain = 0
KDO2 112257Z 16011KT 38/15 A2989 RMK A01 T03840150  RH  025%=      5-min Rain = 0
KDO2 112258Z 17012KT 38/15 A2988 RMK A01 T03840145  RH  024%=      5-min Rain = 0
KDO2 112259Z 17013KT 38/15 A2988 RMK A01 T03840149  RH  025%=      5-min Rain = 0
KDO2 112300Z 17015KT 38/15 A2988 RMK A01 T03830146  RH  025%=      5-min Rain = 0
KDO2 112301Z 17009KT 38/14 A2988 RMK A01 T03830143  RH  024%=      5-min Rain = 0
KDO2 112302Z 17006KT 38/15 A2988 RMK A01 T03820147  RH  025%=      5-min Rain = 0
KDO2 112303Z 18009KT 38/16 A2988 RMK A01 T03820155  RH  026%=      5-min Rain = 0
KDO2 112304Z 17009KT 38/15 A2988 RMK A01 T03830151  RH  026%=      5-min Rain = 0
KDO2 112305Z 15011KT 38/15 A2988 RMK A01 T03830153  RH  026%=      5-min Rain = 0
KDO2 112306Z 14011G16KT 38/15 A2988 RMK A01 T03840150  RH  025%=      5-min Rain = 0
KDO2 112307Z 16013KT 38/15 A2988 RMK A01 T03830148  RH  025%=      5-min Rain = 0
KDO2 112308Z 16010KT 38/15 A2988 RMK A01 T03820147  RH  025%=      5-min Rain = 0
KDO2 112309Z 15011KT 38/15 A2988 RMK A01 T03820147  RH  025%=      5-min Rain = 0
KDO2 112310Z 16010KT 38/15 A2988 RMK A01 T03810146  RH  025%=      5-min Rain = 0
KDO2 112311Z 16011KT 38/15 A2988 RMK A01 T03810153  RH  026%=      5-min Rain = 0
KDO2 112312Z 17010KT 38/15 A2988 RMK A01 T03810151  RH  026%=      5-min Rain = 0
KDO2 112313Z 15011KT 38/15 A2988 RMK A01 T03810150  RH  026%=      5-min Rain = 0
KDO2 112314Z 15011KT 38/15 A2988 RMK A01 T03810150  RH  026%=      5-min Rain = 0
KDO2 112315Z 17011KT 38/15 A2988 RMK A01 T03810149  RH  025%=      5-min Rain = 0
KDO2 112316Z 16010KT 38/15 A2988 RMK A01 T03810147  RH  025%=      5-min Rain = 0
KDO2 112317Z 16009KT 38/15 A2988 RMK A01 T03800149  RH  026%=      5-min Rain = 0
KDO2 112318Z 20008KT 38/15 A2988 RMK A01 T03800150  RH  026%=      5-min Rain = 0
KDO2 112319Z 19009KT 38/15 A2988 RMK A01 T03800149  RH  026%=      5-min Rain = 0
KDO2 112320Z 16008KT 38/15 A2988 RMK A01 T03800151  RH  026%=      5-min Rain = 0
KDO2 112321Z 15011KT 38/15 A2988 RMK A01 T03800151  RH  026%=      5-min Rain = 0
KDO2 112322Z 14011G16KT 38/15 A2988 RMK A01 T03800147  RH  025%=      5-min Rain = 0
KDO2 112323Z 15010KT 38/15 A2988 RMK A01 T03800149  RH  026%=      5-min Rain = 0
KDO2 112324Z 14007KT 38/15 A2988 RMK A01 T03790146  RH  025%=      5-min Rain = 0
KDO2 112325Z 13010KT 38/15 A2988 RMK A01 T03790153  RH  026%=      5-min Rain = 0
KDO2 112326Z 12010KT 38/15 A2988 RMK A01 T03790147  RH  025%=      5-min Rain = 0
KDO2 112327Z 13009KT 38/15 A2988 RMK A01 T03790147  RH  025%=      5-min Rain = 0
KDO2 112328Z 14010KT 38/15 A2988 RMK A01 T03790147  RH  025%=      5-min Rain = 0
KDO2 112329Z 15014KT 38/14 A2988 RMK A01 T03790142  RH  025%=      5-min Rain = 0
KDO2 112330Z 15013KT 38/14 A2988 RMK A01 T03790141  RH  024%=      5-min Rain = 0
KDO2 112331Z 15013KT 38/14 A2988 RMK A01 T03780138  RH  024%=      5-min Rain = 0
KDO2 112332Z 14013KT 38/14 A2988 RMK A01 T03770137  RH  024%=      5-min Rain = 0
KDO2 112333Z 14013KT 38/14 A2988 RMK A01 T03770137  RH  024%=      5-min Rain = 0
KDO2 112334Z 13011KT 38/14 A2988 RMK A01 T03770138  RH  024%=      5-min Rain = 0
KDO2 112335Z 14008KT 38/15 A2988 RMK A01 T03770146  RH  025%=      5-min Rain = 0
KDO2 112336Z 14011KT 38/14 A2988 RMK A01 T03770142  RH  025%=      5-min Rain = 0
KDO2 112337Z 15010KT 38/14 A2988 RMK A01 T03770140  RH  024%=      5-min Rain = 0
KDO2 112338Z 15008KT 38/14 A2988 RMK A01 T03780142  RH  025%=      5-min Rain = 0
KDO2 112339Z 16008KT 38/15 A2988 RMK A01 T03770146  RH  025%=      5-min Rain = 0
KDO2 112340Z 14010KT 38/14 A2988 RMK A01 T03780143  RH  025%=      5-min Rain = 0
KDO2 112341Z 12009KT 38/15 A2988 RMK A01 T03770151  RH  026%=      5-min Rain = 0
KDO2 112342Z 12011KT 38/15 A2988 RMK A01 T03770146  RH  025%=      5-min Rain = 0
KDO2 112343Z 13009KT 38/14 A2988 RMK A01 T03770140  RH  024%=      5-min Rain = 0
KDO2 112344Z 15010KT 38/15 A2988 RMK A01 T03770145  RH  025%=      5-min Rain = 0
KDO2 112345Z 14013KT 38/15 A2988 RMK A01 T03770145  RH  025%=      5-min Rain = 0
KDO2 112346Z 12010KT 38/14 A2988 RMK A01 T03770143  RH  025%=      5-min Rain = 0
KDO2 112347Z 13010KT 38/15 A2988 RMK A01 T03770148  RH  026%=      5-min Rain = 0
KDO2 112348Z 13013KT 38/15 A2988 RMK A01 T03770145  RH  025%=      5-min Rain = 0
KDO2 112349Z 12011KT 38/15 A2988 RMK A01 T03770146  RH  025%=      5-min Rain = 0
KDO2 112350Z 13014KT 38/14 A2988 RMK A01 T03760144  RH  025%=      5-min Rain = 0
KDO2 112351Z 14009KT 38/15 A2988 RMK A01 T03770147  RH  026%=      5-min Rain = 0
KDO2 112352Z 14007KT 38/15 A2988 RMK A01 T03760152  RH  027%=      5-min Rain = 0
KDO2 112353Z 14007KT 38/15 A2988 RMK A01 T03760152  RH  027%=      5-min Rain = 0
KDO2 112354Z 14011KT 38/15 A2988 RMK A01 T03750147  RH  026%=      5-min Rain = 0
KDO2 112355Z 14011KT 38/14 A2988 RMK A01 T03750142  RH  025%=      5-min Rain = 0
KDO2 112356Z 15008KT 38/15 A2988 RMK A01 T03760147  RH  026%=      5-min Rain = 0
KDO2 112357Z 14013KT 38/15 A2988 RMK A01 T03760148  RH  026%=      5-min Rain = 0
KDO2 112358Z 16015KT 38/14 A2988 RMK A01 T03750141  RH  025%=      5-min Rain = 0
KDO2 112359Z 15013KT 38/14 A2988 RMK A01 T03750141  RH  025%=      5-min Rain = 0
KDO2 120000Z 14010KT 37/15 A2988 RMK A01 T03740146  RH  026%=      5-min Rain = 0
KDO2 120001Z 13013KT 37/14 A2987 RMK A01 T03730144  RH  026%=      5-min Rain = 0
KDO2 120002Z 12013KT 37/14 A2987 RMK A01 T03730142  RH  025%=      5-min Rain = 0
KDO2 120003Z 12013KT 37/14 A2987 RMK A01 T03730139  RH  025%=      5-min Rain = 0
KDO2 120004Z 13012KT 37/14 A2987 RMK A01 T03740141  RH  025%=      5-min Rain = 0
KDO2 120005Z 14012KT 37/14 A2987 RMK A01 T03740143  RH  025%=      5-min Rain = 0
KDO2 120006Z 14011KT 37/14 A2987 RMK A01 T03740144  RH  026%=      5-min Rain = 0
KDO2 120007Z 15009KT 37/15 A2987 RMK A01 T03740150  RH  027%=      5-min Rain = 0
KDO2 120008Z 15009KT 37/15 A2987 RMK A01 T03730147  RH  026%=      5-min Rain = 0
KDO2 120009Z 14008KT 37/15 A2988 RMK A01 T03720150  RH  027%=      5-min Rain = 0
KDO2 120010Z 13007KT 37/15 A2988 RMK A01 T03710151  RH  027%=      5-min Rain = 0
KDO2 120011Z 13011KT 37/14 A2988 RMK A01 T03710144  RH  026%=      5-min Rain = 0
KDO2 120012Z 13012KT 37/14 A2988 RMK A01 T03710141  RH  025%=      5-min Rain = 0
KDO2 120013Z 12011KT 37/14 A2988 RMK A01 T03720142  RH  026%=      5-min Rain = 0
KDO2 120014Z 14010KT 37/14 A2988 RMK A01 T03710142  RH  026%=      5-min Rain = 0
KDO2 120015Z 15009KT 37/14 A2988 RMK A01 T03710143  RH  026%=      5-min Rain = 0
KDO2 120016Z 15008KT 37/15 A2988 RMK A01 T03710150  RH  027%=      5-min Rain = 0
KDO2 120017Z 13012KT 37/15 A2988 RMK A01 T03700146  RH  026%=      5-min Rain = 0
KDO2 120018Z 15010KT 37/15 A2988 RMK A01 T03700147  RH  027%=      5-min Rain = 0
KDO2 120019Z 15013KT 37/14 A2988 RMK A01 T03700144  RH  026%=      5-min Rain = 0
KDO2 120020Z 15013KT 37/14 A2988 RMK A01 T03700141  RH  026%=      5-min Rain = 0
KDO2 120021Z 15013KT 37/14 A2988 RMK A01 T03700140  RH  026%=      5-min Rain = 0
KDO2 120022Z 15012KT 37/14 A2988 RMK A01 T03700142  RH  026%=      5-min Rain = 0
KDO2 120023Z 14014KT 37/14 A2988 RMK A01 T03690144  RH  026%=      5-min Rain = 0
KDO2 120024Z 14012KT 37/14 A2988 RMK A01 T03690140  RH  026%=      5-min Rain = 0
KDO2 120025Z 14012KT 37/14 A2988 RMK A01 T03690141  RH  026%=      5-min Rain = 0
KDO2 120026Z 15011KT 37/14 A2988 RMK A01 T03690143  RH  026%=      5-min Rain = 0
KDO2 120027Z 15010KT 37/14 A2988 RMK A01 T03680144  RH  026%=      5-min Rain = 0
KDO2 120028Z 14010KT 37/15 A2988 RMK A01 T03680147  RH  027%=      5-min Rain = 0
KDO2 120029Z 14008KT 37/14 A2988 RMK A01 T03670143  RH  026%=      5-min Rain = 0
KDO2 120030Z 14007KT 37/15 A2988 RMK A01 T03660145  RH  027%=      5-min Rain = 0
KDO2 120031Z 14006KT 37/15 A2988 RMK A01 T03660148  RH  027%=      5-min Rain = 0
KDO2 120032Z 15007KT 37/15 A2988 RMK A01 T03650149  RH  028%=      5-min Rain = 0
KDO2 120033Z 14008KT 36/15 A2988 RMK A01 T03640148  RH  028%=      5-min Rain = 0
KDO2 120034Z 14009KT 36/15 A2988 RMK A01 T03630147  RH  028%=      5-min Rain = 0
KDO2 120035Z 14009KT 36/15 A2988 RMK A01 T03630146  RH  027%=      5-min Rain = 0
KDO2 120036Z 13009KT 36/14 A2988 RMK A01 T03630143  RH  027%=      5-min Rain = 0
KDO2 120037Z 13011KT 36/14 A2988 RMK A01 T03640143  RH  027%=      5-min Rain = 0
KDO2 120038Z 13012KT 36/14 A2988 RMK A01 T03640143  RH  027%=      5-min Rain = 0
KDO2 120039Z 13011KT 36/14 A2988 RMK A01 T03640144  RH  027%=      5-min Rain = 0
KDO2 120040Z 14011KT 36/14 A2988 RMK A01 T03640144  RH  027%=      5-min Rain = 0
KDO2 120041Z 14010KT 36/15 A2988 RMK A01 T03640145  RH  027%=      5-min Rain = 0
KDO2 120042Z 14010KT 36/15 A2988 RMK A01 T03630146  RH  027%=      5-min Rain = 0
KDO2 120043Z 13010KT 36/15 A2988 RMK A01 T03620145  RH  027%=      5-min Rain = 0
KDO2 120044Z 13008KT 36/15 A2988 RMK A01 T03620146  RH  028%=      5-min Rain = 0
KDO2 120045Z 14008KT 36/15 A2988 RMK A01 T03610148  RH  028%=      5-min Rain = 0
KDO2 120046Z 14011KT 36/15 A2988 RMK A01 T03600147  RH  028%=      5-min Rain = 0
KDO2 120047Z 14010KT 36/14 A2988 RMK A01 T03600143  RH  027%=      5-min Rain = 0
KDO2 120048Z 13009KT 36/15 A2988 RMK A01 T03610145  RH  028%=      5-min Rain = 0
KDO2 120049Z 14009KT 36/15 A2988 RMK A01 T03610146  RH  028%=      5-min Rain = 0
KDO2 120050Z 13010KT 36/15 A2988 RMK A01 T03600145  RH  028%=      5-min Rain = 0
KDO2 120051Z 14010KT 36/15 A2988 RMK A01 T03590145  RH  028%=      5-min Rain = 0
KDO2 120052Z 13009KT 36/14 A2988 RMK A01 T03580143  RH  028%=      5-min Rain = 0
KDO2 120053Z 14010KT 36/14 A2988 RMK A01 T03580143  RH  028%=      5-min Rain = 0
KDO2 120054Z 14010KT 36/14 A2988 RMK A01 T03580143  RH  028%=      5-min Rain = 0
KDO2 120055Z 13009KT 36/14 A2988 RMK A01 T03580143  RH  028%=      5-min Rain = 0
KDO2 120056Z 13008KT 36/14 A2988 RMK A01 T03570144  RH  028%=      5-min Rain = 0
KDO2 120057Z 13010KT 36/14 A2988 RMK A01 T03560144  RH  028%=      5-min Rain = 0
KDO2 120058Z 13010KT 36/14 A2988 RMK A01 T03550141  RH  028%=      5-min Rain = 0
KDO2 120059Z 13008KT 36/14 A2988 RMK A01 T03560142  RH  028%=      5-min Rain = 0
KDO2 120100Z 14010KT 36/14 A2988 RMK A01 T03550143  RH  028%=      5-min Rain = 0
KDO2 120101Z 13010KT 36/14 A2988 RMK A01 T03550142  RH  028%=      5-min Rain = 0
KDO2 120102Z 13009KT 36/14 A2988 RMK A01 T03550141  RH  028%=      5-min Rain = 0
KDO2 120103Z 13009KT 36/14 A2988 RMK A01 T03550141  RH  028%=      5-min Rain = 0
KDO2 120104Z 13009KT 36/14 A2988 RMK A01 T03550142  RH  028%=      5-min Rain = 0
KDO2 120105Z 13009KT 35/14 A2988 RMK A01 T03530142  RH  028%=      5-min Rain = 0
KDO2 120106Z 13008KT 35/14 A2988 RMK A01 T03530142  RH  028%=      5-min Rain = 0
KDO2 120107Z 13010KT 35/14 A2988 RMK A01 T03520141  RH  028%=      5-min Rain = 0
KDO2 120108Z 13008KT 35/14 A2988 RMK A01 T03520140  RH  028%=      5-min Rain = 0
KDO2 120109Z 13009KT 35/14 A2989 RMK A01 T03520141  RH  028%=      5-min Rain = 0
KDO2 120110Z 13010KT 35/14 A2989 RMK A01 T03520139  RH  028%=      5-min Rain = 0
KDO2 120111Z 13009KT 35/14 A2989 RMK A01 T03520140  RH  028%=      5-min Rain = 0
KDO2 120112Z 13009KT 35/14 A2989 RMK A01 T03520141  RH  028%=      5-min Rain = 0
KDO2 120113Z 13009KT 35/14 A2989 RMK A01 T03510141  RH  028%=      5-min Rain = 0
KDO2 120114Z 13009KT 35/14 A2989 RMK A01 T03500140  RH  028%=      5-min Rain = 0
KDO2 120115Z 13008KT 35/14 A2989 RMK A01 T03500141  RH  029%=      5-min Rain = 0
KDO2 120116Z 13009KT 35/14 A2989 RMK A01 T03490140  RH  029%=      5-min Rain = 0
KDO2 120117Z 14008KT 35/14 A2989 RMK A01 T03490141  RH  029%=      5-min Rain = 0
KDO2 120118Z 13010KT 35/14 A2989 RMK A01 T03490140  RH  029%=      5-min Rain = 0
KDO2 120119Z 13009KT 35/14 A2989 RMK A01 T03490140  RH  029%=      5-min Rain = 0
KDO2 120120Z 14009KT 35/14 A2989 RMK A01 T03490140  RH  029%=      5-min Rain = 0
KDO2 120121Z 14009KT 35/14 A2989 RMK A01 T03490141  RH  029%=      5-min Rain = 0
KDO2 120122Z 14009KT 35/14 A2989 RMK A01 T03480141  RH  029%=      5-min Rain = 0
KDO2 120123Z 14009KT 35/14 A2989 RMK A01 T03480141  RH  029%=      5-min Rain = 0
KDO2 120124Z 13008KT 35/14 A2989 RMK A01 T03480141  RH  029%=      5-min Rain = 0
KDO2 120125Z 14009KT 35/14 A2989 RMK A01 T03470141  RH  029%=      5-min Rain = 0
KDO2 120126Z 14010KT 35/14 A2989 RMK A01 T03470141  RH  029%=      5-min Rain = 0
KDO2 120127Z 13009KT 35/14 A2989 RMK A01 T03470141  RH  029%=      5-min Rain = 0
KDO2 120128Z 13009KT 35/14 A2989 RMK A01 T03460141  RH  029%=      5-min Rain = 0
KDO2 120129Z 13008KT 35/14 A2989 RMK A01 T03460141  RH  029%=      5-min Rain = 0
KDO2 120130Z 14009KT 35/14 A2989 RMK A01 T03450141  RH  029%=      5-min Rain = 0
KDO2 120131Z 13008KT 35/14 A2989 RMK A01 T03450142  RH  030%=      5-min Rain = 0
KDO2 120132Z 14009KT 34/14 A2989 RMK A01 T03440142  RH  030%=      5-min Rain = 0
KDO2 120133Z 14008KT 34/14 A2989 RMK A01 T03430142  RH  030%=      5-min Rain = 0
KDO2 120134Z 14008KT 34/14 A2989 RMK A01 T03430142  RH  030%=      5-min Rain = 0
KDO2 120135Z 13009KT 34/14 A2989 RMK A01 T03420143  RH  030%=      5-min Rain = 0
KDO2 120136Z 14008KT 34/14 A2989 RMK A01 T03420142  RH  030%=      5-min Rain = 0
KDO2 120137Z 14009KT 34/14 A2989 RMK A01 T03410142  RH  030%=      5-min Rain = 0
KDO2 120138Z 14009KT 34/14 A2989 RMK A01 T03410143  RH  030%=      5-min Rain = 0
KDO2 120139Z 14009KT 34/14 A2989 RMK A01 T03410143  RH  030%=      5-min Rain = 0
KDO2 120140Z 14009KT 34/14 A2989 RMK A01 T03400142  RH  030%=      5-min Rain = 0
KDO2 120141Z 14009KT 34/14 A2989 RMK A01 T03410143  RH  030%=      5-min Rain = 0
KDO2 120142Z 14009KT 34/14 A2989 RMK A01 T03410144  RH  031%=      5-min Rain = 0
KDO2 120143Z 14008KT 34/14 A2989 RMK A01 T03400144  RH  031%=      5-min Rain = 0
KDO2 120144Z 14008KT 34/14 A2989 RMK A01 T03390144  RH  031%=      5-min Rain = 0
KDO2 120145Z 14009KT 34/14 A2989 RMK A01 T03380144  RH  031%=      5-min Rain = 0
KDO2 120146Z 14008KT 34/14 A2989 RMK A01 T03380144  RH  031%=      5-min Rain = 0
KDO2 120147Z 14008KT 34/14 A2989 RMK A01 T03380144  RH  031%=      5-min Rain = 0
KDO2 120148Z 14010KT 34/15 A2989 RMK A01 T03380145  RH  031%=      5-min Rain = 0
KDO2 120149Z 14009KT 34/15 A2989 RMK A01 T03380145  RH  031%=      5-min Rain = 0
KDO2 120150Z 14008KT 34/15 A2989 RMK A01 T03380145  RH  031%=      5-min Rain = 0
KDO2 120151Z 14008KT 34/15 A2989 RMK A01 T03380145  RH  031%=      5-min Rain = 0
KDO2 120152Z 14008KT 34/15 A2989 RMK A01 T03370145  RH  032%=      5-min Rain = 0
KDO2 120153Z 14009KT 34/15 A2989 RMK A01 T03360145  RH  032%=      5-min Rain = 0
KDO2 120154Z 13008KT 34/15 A2989 RMK A01 T03350145  RH  032%=      5-min Rain = 0
KDO2 120155Z 13008KT 34/15 A2989 RMK A01 T03360146  RH  032%=      5-min Rain = 0
KDO2 120156Z 13008KT 34/15 A2989 RMK A01 T03350146  RH  032%=      5-min Rain = 0
KDO2 120157Z 14009KT 33/15 A2989 RMK A01 T03340146  RH  032%=      5-min Rain = 0
KDO2 120158Z 14008KT 33/15 A2989 RMK A01 T03340145  RH  032%=      5-min Rain = 0
KDO2 120159Z 13008KT 33/15 A2989 RMK A01 T03340146  RH  032%=      5-min Rain = 0
KDO2 120200Z 14009KT 33/15 A2989 RMK A01 T03340146  RH  032%=      5-min Rain = 0
KDO2 120201Z 14008KT 33/15 A2989 RMK A01 T03330146  RH  032%=      5-min Rain = 0
KDO2 120202Z 14008KT 33/15 A2989 RMK A01 T03330146  RH  033%=      5-min Rain = 0
KDO2 120203Z 14008KT 33/15 A2989 RMK A01 T03330146  RH  033%=      5-min Rain = 0
KDO2 120204Z 14008KT 33/15 A2989 RMK A01 T03320146  RH  033%=      5-min Rain = 0
KDO2 120205Z 14008KT 33/15 A299 RMK A01 T03320147  RH  033%=      5-min Rain = 0
KDO2 120206Z 14007KT 33/15 A299 RMK A01 T03320146  RH  033%=      5-min Rain = 0
KDO2 120207Z 14007KT 33/15 A299 RMK A01 T03310147  RH  033%=      5-min Rain = 0
KDO2 120208Z 14008KT 33/15 A299 RMK A01 T03300147  RH  033%=      5-min Rain = 0
KDO2 120209Z 14008KT 33/15 A299 RMK A01 T03290147  RH  033%=      5-min Rain = 0
KDO2 120210Z 14008KT 33/15 A299 RMK A01 T03290146  RH  033%=      5-min Rain = 0
KDO2 120211Z 14008KT 33/15 A299 RMK A01 T03290146  RH  033%=      5-min Rain = 0
KDO2 120212Z 14008KT 33/15 A299 RMK A01 T03290147  RH  033%=      5-min Rain = 0
KDO2 120213Z 14008KT 33/15 A299 RMK A01 T03290147  RH  033%=      5-min Rain = 0
KDO2 120214Z 14008KT 33/15 A299 RMK A01 T03290147  RH  033%=      5-min Rain = 0
KDO2 120215Z 14007KT 33/15 A299 RMK A01 T03290147  RH  033%=      5-min Rain = 0
KDO2 120216Z 14008KT 33/15 A299 RMK A01 T03280148  RH  034%=      5-min Rain = 0
KDO2 120217Z 14008KT 33/15 A299 RMK A01 T03280147  RH  034%=      5-min Rain = 0
KDO2 120218Z 14009KT 33/15 A299 RMK A01 T03280147  RH  034%=      5-min Rain = 0
KDO2 120219Z 14009KT 33/15 A299 RMK A01 T03280147  RH  034%=      5-min Rain = 0
KDO2 120220Z 14008KT 33/15 A299 RMK A01 T03280147  RH  034%=      5-min Rain = 0
KDO2 120221Z 14008KT 33/15 A299 RMK A01 T03290147  RH  033%=      5-min Rain = 0
KDO2 120222Z 14009KT 33/15 A299 RMK A01 T03290147  RH  033%=      5-min Rain = 0
KDO2 120223Z 14009KT 33/15 A299 RMK A01 T03290147  RH  033%=      5-min Rain = 0
KDO2 120224Z 15009KT 33/15 A299 RMK A01 T03290147  RH  033%=      5-min Rain = 0
KDO2 120225Z 14009KT 33/15 A299 RMK A01 T03290147  RH  033%=      5-min Rain = 0
KDO2 120226Z 14008KT 33/15 A299 RMK A01 T03290147  RH  033%=      5-min Rain = 0
KDO2 120227Z 14009KT 33/15 A299 RMK A01 T03280147  RH  034%=      5-min Rain = 0
KDO2 120228Z 14009KT 33/15 A299 RMK A01 T03280147  RH  034%=      5-min Rain = 0
KDO2 120229Z 15009KT 33/15 A299 RMK A01 T03280147  RH  034%=      5-min Rain = 0
KDO2 120230Z 15008KT 33/15 A299 RMK A01 T03280147  RH  034%=      5-min Rain = 0
KDO2 120231Z 15009KT 33/15 A299 RMK A01 T03270147  RH  034%=      5-min Rain = 0
KDO2 120232Z 15008KT 33/15 A299 RMK A01 T03260147  RH  034%=      5-min Rain = 0
KDO2 120233Z 15008KT 33/15 A299 RMK A01 T03260147  RH  034%=      5-min Rain = 0
KDO2 120234Z 15009KT 33/15 A299 RMK A01 T03260147  RH  034%=      5-min Rain = 0
KDO2 120235Z 15008KT 33/15 A299 RMK A01 T03260147  RH  034%=      5-min Rain = 0
KDO2 120236Z 15009KT 33/15 A299 RMK A01 T03260148  RH  034%=      5-min Rain = 0
KDO2 120237Z 15008KT 33/15 A299 RMK A01 T03260148  RH  034%=      5-min Rain = 0
KDO2 120238Z 15008KT 33/15 A2991 RMK A01 T03250148  RH  034%=      5-min Rain = 0
KDO2 120239Z 15009KT 32/15 A2991 RMK A01 T03240148  RH  034%=      5-min Rain = 0
KDO2 120240Z 15009KT 32/15 A2991 RMK A01 T03240148  RH  034%=      5-min Rain = 0
KDO2 120241Z 14009KT 32/15 A2991 RMK A01 T03240147  RH  034%=      5-min Rain = 0
KDO2 120242Z 14008KT 33/15 A2991 RMK A01 T03250148  RH  034%=      5-min Rain = 0
KDO2 120243Z 14008KT 33/15 A2991 RMK A01 T03250147  RH  034%=      5-min Rain = 0
KDO2 120244Z 14008KT 33/15 A2991 RMK A01 T03250148  RH  034%=      5-min Rain = 0
KDO2 120245Z 14008KT 33/15 A2991 RMK A01 T03250148  RH  034%=      5-min Rain = 0
KDO2 120246Z 14008KT 32/15 A2991 RMK A01 T03240148  RH  034%=      5-min Rain = 0
KDO2 120247Z 13009KT 32/15 A2991 RMK A01 T03240148  RH  034%=      5-min Rain = 0
KDO2 120248Z 13009KT 32/15 A2991 RMK A01 T03240147  RH  034%=      5-min Rain = 0
KDO2 120249Z 13008KT 32/15 A2991 RMK A01 T03240147  RH  034%=      5-min Rain = 0
KDO2 120250Z 13007KT 32/15 A2991 RMK A01 T03240148  RH  035%=      5-min Rain = 0
KDO2 120251Z 13008KT 32/15 A2991 RMK A01 T03240148  RH  035%=      5-min Rain = 0
KDO2 120252Z 14008KT 32/15 A2991 RMK A01 T03240147  RH  035%=      5-min Rain = 0
KDO2 120253Z 13008KT 32/15 A2991 RMK A01 T03240148  RH  035%=      5-min Rain = 0
KDO2 120254Z 14007KT 32/15 A2991 RMK A01 T03230148  RH  035%=      5-min Rain = 0
KDO2 120255Z 14007KT 32/15 A2991 RMK A01 T03230148  RH  035%=      5-min Rain = 0
KDO2 120256Z 14007KT 32/15 A2991 RMK A01 T03210148  RH  035%=      5-min Rain = 0
KDO2 120257Z 14006KT 32/15 A2991 RMK A01 T03200149  RH  035%=      5-min Rain = 0
KDO2 120258Z 14006KT 32/15 A2991 RMK A01 T03190148  RH  036%=      5-min Rain = 0
KDO2 120259Z 14007KT 32/15 A2991 RMK A01 T03170148  RH  036%=      5-min Rain = 0
KDO2 120300Z 14007KT 32/15 A2991 RMK A01 T03160148  RH  036%=      5-min Rain = 0
KDO2 120301Z 14007KT 32/15 A2992 RMK A01 T03160148  RH  036%=      5-min Rain = 0
KDO2 120302Z 14007KT 32/15 A2992 RMK A01 T03160148  RH  036%=      5-min Rain = 0
KDO2 120303Z 14007KT 32/15 A2992 RMK A01 T03150148  RH  036%=      5-min Rain = 0
KDO2 120304Z 14007KT 32/15 A2992 RMK A01 T03150148  RH  036%=      5-min Rain = 0
KDO2 120305Z 14007KT 31/15 A2992 RMK A01 T03140148  RH  036%=      5-min Rain = 0
KDO2 120306Z 14007KT 31/15 A2992 RMK A01 T03140148  RH  037%=      5-min Rain = 0
KDO2 120307Z 14007KT 31/15 A2992 RMK A01 T03140148  RH  037%=      5-min Rain = 0
KDO2 120308Z 14007KT 31/15 A2992 RMK A01 T03140148  RH  037%=      5-min Rain = 0
KDO2 120309Z 14007KT 31/15 A2992 RMK A01 T03140148  RH  037%=      5-min Rain = 0
KDO2 120310Z 14007KT 31/15 A2992 RMK A01 T03130149  RH  037%=      5-min Rain = 0
KDO2 120311Z 14006KT 31/15 A2992 RMK A01 T03130149  RH  037%=      5-min Rain = 0
KDO2 120312Z 14006KT 31/15 A2992 RMK A01 T03120149  RH  037%=      5-min Rain = 0
KDO2 120313Z 14006KT 31/15 A2992 RMK A01 T03110149  RH  037%=      5-min Rain = 0
KDO2 120314Z 14006KT 31/15 A2992 RMK A01 T03110149  RH  038%=      5-min Rain = 0
KDO2 120315Z 14006KT 31/15 A2992 RMK A01 T03100149  RH  038%=      5-min Rain = 0
KDO2 120321Z 15007KT 31/15 A2992 RMK A01 T03070150  RH  039%=      5-min Rain = 0
KDO2 120322Z 15007KT 31/15 A2992 RMK A01 T03070151  RH  039%=      5-min Rain = 0
KDO2 120323Z 15007KT 31/15 A2992 RMK A01 T03070151  RH  039%=      5-min Rain = 0
KDO2 120324Z 15007KT 31/15 A2992 RMK A01 T03060151  RH  039%=      5-min Rain = 0
KDO2 120325Z 15007KT 31/15 A2992 RMK A01 T03060151  RH  039%=      5-min Rain = 0
KDO2 120326Z 15007KT 31/15 A2992 RMK A01 T03060152  RH  039%=      5-min Rain = 0
KDO2 120327Z 15006KT 31/15 A2993 RMK A01 T03050152  RH  039%=      5-min Rain = 0
KDO2 120328Z 15006KT 31/15 A2993 RMK A01 T03050152  RH  040%=      5-min Rain = 0
KDO2 120329Z 15006KT 30/15 A2993 RMK A01 T03040153  RH  040%=      5-min Rain = 0
KDO2 120330Z 15006KT 30/15 A2993 RMK A01 T03040153  RH  040%=      5-min Rain = 0
KDO2 120331Z 15006KT 30/15 A2993 RMK A01 T03020153  RH  040%=      5-min Rain = 0
KDO2 120332Z 15006KT 30/15 A2993 RMK A01 T03020154  RH  041%=      5-min Rain = 0
KDO2 120333Z 15006KT 30/15 A2993 RMK A01 T03000154  RH  041%=      5-min Rain = 0
KDO2 120334Z 15006KT 30/15 A2993 RMK A01 T02990154  RH  041%=      5-min Rain = 0
KDO2 120335Z 15006KT 30/15 A2993 RMK A01 T02980154  RH  042%=      5-min Rain = 0
KDO2 120336Z 15006KT 30/15 A2993 RMK A01 T02970154  RH  042%=      5-min Rain = 0
KDO2 120337Z 16007KT 30/15 A2993 RMK A01 T02960154  RH  042%=      5-min Rain = 0
KDO2 120338Z 16007KT 30/15 A2993 RMK A01 T02950154  RH  042%=      5-min Rain = 0
KDO2 120339Z 16007KT 29/15 A2993 RMK A01 T02940154  RH  043%=      5-min Rain = 0
KDO2 120340Z 16007KT 29/15 A2993 RMK A01 T02930154  RH  043%=      5-min Rain = 0
KDO2 120341Z 16007KT 29/15 A2993 RMK A01 T02920154  RH  043%=      5-min Rain = 0
KDO2 120342Z 16007KT 29/16 A2993 RMK A01 T02920155  RH  043%=      5-min Rain = 0
KDO2 120343Z 15007KT 29/15 A2993 RMK A01 T02910154  RH  043%=      5-min Rain = 0
KDO2 120344Z 15007KT 29/16 A2993 RMK A01 T02910155  RH  044%=      5-min Rain = 0
KDO2 120345Z 15006KT 29/15 A2993 RMK A01 T02910154  RH  044%=      5-min Rain = 0
KDO2 120346Z 15007KT 29/15 A2993 RMK A01 T02900154  RH  044%=      5-min Rain = 0
KDO2 120347Z 15007KT 29/16 A2993 RMK A01 T02900155  RH  044%=      5-min Rain = 0
KDO2 120348Z 15006KT 29/16 A2993 RMK A01 T02900155  RH  044%=      5-min Rain = 0
KDO2 120349Z 15006KT 29/16 A2993 RMK A01 T02900155  RH  044%=      5-min Rain = 0
KDO2 120350Z 15007KT 29/16 A2993 RMK A01 T02900155  RH  044%=      5-min Rain = 0
KDO2 120351Z 16007KT 29/16 A2993 RMK A01 T02890155  RH  044%=      5-min Rain = 0
KDO2 120352Z 16007KT 29/16 A2993 RMK A01 T02890155  RH  044%=      5-min Rain = 0
KDO2 120353Z 16007KT 29/16 A2993 RMK A01 T02900155  RH  044%=      5-min Rain = 0
KDO2 120354Z 16007KT 29/16 A2993 RMK A01 T02900156  RH  044%=      5-min Rain = 0
KDO2 120355Z 16007KT 29/16 A2993 RMK A01 T02900156  RH  044%=      5-min Rain = 0
KDO2 120356Z 16007KT 29/16 A2993 RMK A01 T02900156  RH  044%=      5-min Rain = 0
KDO2 120357Z 16007KT 29/16 A2993 RMK A01 T02900157  RH  044%=      5-min Rain = 0
KDO2 120358Z 16007KT 29/16 A2993 RMK A01 T02910157  RH  044%=      5-min Rain = 0
KDO2 120359Z 16007KT 29/16 A2993 RMK A01 T02910157  RH  044%=      5-min Rain = 0
KDO2 120400Z 16007KT 29/16 A2993 RMK A01 T02920158  RH  044%=      5-min Rain = 0
KDO2 120401Z 16007KT 29/16 A2993 RMK A01 T02930158  RH  044%=      5-min Rain = 0
KDO2 120402Z 17006KT 29/16 A2993 RMK A01 T02940158  RH  044%=      5-min Rain = 0
KDO2 120403Z 17007KT 29/16 A2993 RMK A01 T02940157  RH  044%=      5-min Rain = 0
KDO2 120404Z 16007KT 29/16 A2993 RMK A01 T02940157  RH  043%=      5-min Rain = 0
KDO2 120405Z 16007KT 29/16 A2993 RMK A01 T02940156  RH  043%=      5-min Rain = 0
KDO2 120406Z 17007KT 29/16 A2993 RMK A01 T02940156  RH  043%=      5-min Rain = 0
KDO2 120407Z 17007KT 29/16 A2994 RMK A01 T02940155  RH  043%=      5-min Rain = 0
KDO2 120408Z 16007KT 29/16 A2994 RMK A01 T02940155  RH  043%=      5-min Rain = 0
KDO2 120409Z 16007KT 29/16 A2994 RMK A01 T02940155  RH  043%=      5-min Rain = 0
KDO2 120410Z 16007KT 29/16 A2994 RMK A01 T02940155  RH  043%=      5-min Rain = 0
KDO2 120411Z 16007KT 29/16 A2994 RMK A01 T02940155  RH  043%=      5-min Rain = 0
KDO2 120412Z 16007KT 29/16 A2994 RMK A01 T02940156  RH  043%=      5-min Rain = 0
KDO2 120413Z 16007KT 29/16 A2994 RMK A01 T02940156  RH  043%=      5-min Rain = 0
KDO2 120414Z 16007KT 29/16 A2994 RMK A01 T02940156  RH  043%=      5-min Rain = 0
KDO2 120415Z 16007KT 29/16 A2994 RMK A01 T02940157  RH  043%=      5-min Rain = 0
KDO2 120416Z 16007KT 29/16 A2994 RMK A01 T02940157  RH  043%=      5-min Rain = 0
KDO2 120417Z 16006KT 29/16 A2994 RMK A01 T02940158  RH  044%=      5-min Rain = 0
KDO2 120418Z 16006KT 29/16 A2994 RMK A01 T02940158  RH  044%=      5-min Rain = 0
KDO2 120419Z 16006KT 29/16 A2994 RMK A01 T02930158  RH  044%=      5-min Rain = 0
KDO2 120420Z 16005KT 29/16 A2994 RMK A01 T02930158  RH  044%=      5-min Rain = 0
KDO2 120421Z 17005KT 29/16 A2994 RMK A01 T02920158  RH  044%=      5-min Rain = 0
KDO2 120422Z 16006KT 29/16 A2994 RMK A01 T02910158  RH  045%=      5-min Rain = 0
KDO2 120423Z 16006KT 29/16 A2994 RMK A01 T02900158  RH  045%=      5-min Rain = 0
KDO2 120424Z 16006KT 29/16 A2994 RMK A01 T02900157  RH  045%=      5-min Rain = 0
KDO2 120425Z 16007KT 29/16 A2994 RMK A01 T02890157  RH  045%=      5-min Rain = 0
KDO2 120426Z 17007KT 29/16 A2994 RMK A01 T02890157  RH  045%=      5-min Rain = 0
KDO2 120427Z 17007KT 29/16 A2994 RMK A01 T02900157  RH  045%=      5-min Rain = 0
KDO2 120428Z 16007KT 29/16 A2994 RMK A01 T02890157  RH  045%=      5-min Rain = 0
KDO2 120429Z 17007KT 29/16 A2994 RMK A01 T02900158  RH  045%=      5-min Rain = 0
KDO2 120430Z 17007KT 29/16 A2995 RMK A01 T02900158  RH  045%=      5-min Rain = 0
KDO2 120431Z 17007KT 29/16 A2995 RMK A01 T02910159  RH  045%=      5-min Rain = 0
KDO2 120432Z 17007KT 29/16 A2995 RMK A01 T02910159  RH  045%=      5-min Rain = 0
KDO2 120433Z 16007KT 29/16 A2995 RMK A01 T02910159  RH  045%=      5-min Rain = 0
KDO2 120434Z 17008KT 29/16 A2995 RMK A01 T02910159  RH  045%=      5-min Rain = 0
KDO2 120435Z 17007KT 29/16 A2995 RMK A01 T02920160  RH  045%=      5-min Rain = 0
KDO2 120436Z 17007KT 29/16 A2995 RMK A01 T02920160  RH  045%=      5-min Rain = 0
KDO2 120437Z 17008KT 29/16 A2995 RMK A01 T02920160  RH  045%=      5-min Rain = 0
KDO2 120438Z 16007KT 29/16 A2995 RMK A01 T02920160  RH  045%=      5-min Rain = 0
KDO2 120439Z 17008KT 29/16 A2995 RMK A01 T02920160  RH  045%=      5-min Rain = 0
KDO2 120440Z 17008KT 29/16 A2995 RMK A01 T02930160  RH  045%=      5-min Rain = 0
KDO2 120441Z 17008KT 29/16 A2995 RMK A01 T02930160  RH  045%=      5-min Rain = 0
KDO2 120442Z 16008KT 29/16 A2995 RMK A01 T02930160  RH  045%=      5-min Rain = 0
KDO2 120443Z 16008KT 29/16 A2995 RMK A01 T02930160  RH  045%=      5-min Rain = 0
KDO2 120444Z 17008KT 29/16 A2995 RMK A01 T02930161  RH  045%=      5-min Rain = 0
KDO2 120445Z 17007KT 29/16 A2995 RMK A01 T02930161  RH  045%=      5-min Rain = 0
KDO2 120446Z 17008KT 29/16 A2995 RMK A01 T02930161  RH  045%=      5-min Rain = 0
KDO2 120447Z 16008KT 29/16 A2995 RMK A01 T02930161  RH  045%=      5-min Rain = 0
KDO2 120448Z 16006KT 29/16 A2995 RMK A01 T02920161  RH  045%=      5-min Rain = 0
KDO2 120449Z 16007KT 29/16 A2995 RMK A01 T02920161  RH  045%=      5-min Rain = 0
KDO2 120450Z 16007KT 29/16 A2995 RMK A01 T02910161  RH  045%=      5-min Rain = 0
KDO2 120451Z 17007KT 29/16 A2995 RMK A01 T02910161  RH  045%=      5-min Rain = 0
KDO2 120452Z 17007KT 29/16 A2994 RMK A01 T02910161  RH  046%=      5-min Rain = 0
KDO2 120453Z 17007KT 29/16 A2994 RMK A01 T02900161  RH  046%=      5-min Rain = 0
KDO2 120454Z 17007KT 29/16 A2994 RMK A01 T02900162  RH  046%=      5-min Rain = 0
KDO2 120455Z 16007KT 29/16 A2994 RMK A01 T02890161  RH  046%=      5-min Rain = 0
KDO2 120456Z 16006KT 29/16 A2994 RMK A01 T02890162  RH  046%=      5-min Rain = 0
KDO2 120457Z 16007KT 29/16 A2994 RMK A01 T02890162  RH  046%=      5-min Rain = 0
KDO2 120458Z 16007KT 29/16 A2994 RMK A01 T02890162  RH  046%=      5-min Rain = 0
KDO2 120459Z 17007KT 29/16 A2994 RMK A01 T02890162  RH  046%=      5-min Rain = 0

Page generated in 0.1752 seconds.